Observation data for Caprock Canyons on 04/23/2019      Previous  Date  Next       Current Mesonet Observations  Soil Data  Daily Summary Page  Observations in Plain Language
KQU1 230500Z 36010G16KT 13/12 A3007 RMK A01 T01310120  RH  093%=      5-min Rain = 0
KQU1 230501Z 35010G16KT 13/12 A3007 RMK A01 T01310119  RH  093%=      5-min Rain = 0
KQU1 230502Z 35008KT 13/12 A3007 RMK A01 T01310120  RH  093%=      5-min Rain = 0
KQU1 230503Z 35008KT 13/12 A3007 RMK A01 T01310120  RH  093%=      5-min Rain = 0
KQU1 230504Z 00008KT 13/12 A3007 RMK A01 T01310120  RH  093%=      5-min Rain = 0
KQU1 230505Z 36008G15KT 13/12 A3007 RMK A01 T01310120  RH  093%=      5-min Rain = 0
KQU1 230506Z 35010G16KT 13/12 A3007 RMK A01 T01310120  RH  093%=      5-min Rain = 0
KQU1 230507Z 35009G15KT 13/12 A3007 RMK A01 T01310120  RH  093%=      5-min Rain = 0
KQU1 230508Z 35010G15KT 13/12 A3007 RMK A01 T01300120  RH  093%=      5-min Rain = 0
KQU1 230509Z 35008KT 13/12 A3007 RMK A01 T01310120  RH  093%=      5-min Rain = 0
KQU1 230510Z 36009KT 13/12 A3007 RMK A01 T01310120  RH  093%=      5-min Rain = 0
KQU1 230511Z 35009G14KT 13/12 A3007 RMK A01 T01300120  RH  093%=      5-min Rain = 0
KQU1 230512Z 35010G16KT 13/12 A3007 RMK A01 T01300120  RH  093%=      5-min Rain = 0
KQU1 230513Z 36007KT 13/12 A3007 RMK A01 T01300120  RH  094%=      5-min Rain = 0
KQU1 230514Z 35008G13KT 13/12 A3007 RMK A01 T01300120  RH  094%=      5-min Rain = 0
KQU1 230515Z 34009G15KT 13/12 A3007 RMK A01 T01300120  RH  094%=      5-min Rain = 0
KQU1 230516Z 35008KT 13/12 A3007 RMK A01 T01300120  RH  094%=      5-min Rain = 0
KQU1 230517Z 36010KT 13/12 A3007 RMK A01 T01300120  RH  094%=      5-min Rain = 0
KQU1 230518Z 35009G15KT 13/12 A3007 RMK A01 T01300120  RH  093%=      5-min Rain = 0
KQU1 230519Z 35011G17KT 13/12 A3007 RMK A01 T01300120  RH  093%=      5-min Rain = 0
KQU1 230520Z 36010KT 13/12 A3007 RMK A01 T01310120  RH  093%=      5-min Rain = 0
KQU1 230521Z 35009G14KT 13/12 A3007 RMK A01 T01310120  RH  093%=      5-min Rain = 0
KQU1 230522Z 34011G17KT 13/12 A3007 RMK A01 T01310120  RH  093%=      5-min Rain = 0
KQU1 230523Z 35011KT 13/12 A3007 RMK A01 T01310119  RH  093%=      5-min Rain = 0
KQU1 230524Z 35010G15KT 13/12 A3007 RMK A01 T01310119  RH  092%=      5-min Rain = 0
KQU1 230525Z 35009G15KT 13/12 A3007 RMK A01 T01310119  RH  092%=      5-min Rain = 0
KQU1 230526Z 35009KT 13/12 A3007 RMK A01 T01310119  RH  092%=      5-min Rain = 0
KQU1 230527Z 34009KT 13/12 A3007 RMK A01 T01310119  RH  092%=      5-min Rain = 0
KQU1 230528Z 35009G14KT 13/12 A3007 RMK A01 T01310119  RH  092%=      5-min Rain = 0
KQU1 230529Z 35008G14KT 13/12 A3007 RMK A01 T01310119  RH  092%=      5-min Rain = 0
KQU1 230530Z 36009KT 13/12 A3007 RMK A01 T01310119  RH  092%=      5-min Rain = 0
KQU1 230531Z 35010G15KT 13/12 A3007 RMK A01 T01310119  RH  092%=      5-min Rain = 0
KQU1 230532Z 35009G14KT 13/12 A3007 RMK A01 T01310119  RH  092%=      5-min Rain = 0
KQU1 230533Z 35007KT 13/12 A3006 RMK A01 T01310119  RH  092%=      5-min Rain = 0
KQU1 230534Z 35010KT 13/12 A3006 RMK A01 T01310119  RH  093%=      5-min Rain = 0
KQU1 230535Z 35011G16KT 13/12 A3006 RMK A01 T01310119  RH  092%=      5-min Rain = 0
KQU1 230536Z 35012G18KT 13/12 A3006 RMK A01 T01310119  RH  092%=      5-min Rain = 0
KQU1 230537Z 35010KT 13/12 A3006 RMK A01 T01310119  RH  092%=      5-min Rain = 0
KQU1 230538Z 35013G21KT 13/12 A3005 RMK A01 T01310119  RH  092%=      5-min Rain = 0
KQU1 230539Z 35009G16KT 13/12 A3005 RMK A01 T01310119  RH  092%=      5-min Rain = 0
KQU1 230540Z 35013G20KT 13/12 A3005 RMK A01 T01310119  RH  092%=      5-min Rain = 0
KQU1 230541Z 35013G18KT 13/12 A3005 RMK A01 T01310119  RH  092%=      5-min Rain = 0
KQU1 230542Z 35010G15KT 13/12 A3005 RMK A01 T01310119  RH  093%=      5-min Rain = 0
KQU1 230543Z 35012G18KT 13/12 A3005 RMK A01 T01310119  RH  093%=      5-min Rain = 0
KQU1 230544Z 34012G18KT 13/12 A3004 RMK A01 T01310119  RH  092%=      5-min Rain = 0
KQU1 230545Z 35014G20KT 13/12 A3004 RMK A01 T01300118  RH  092%=      5-min Rain = 0
KQU1 230546Z 35014KT 13/12 A3004 RMK A01 T01300118  RH  092%=      5-min Rain = 0
KQU1 230547Z 35011KT 13/12 A3004 RMK A01 T01310118  RH  092%=      5-min Rain = 0
KQU1 230548Z 36013KT 13/12 A3005 RMK A01 T01310119  RH  092%=      5-min Rain = 0
KQU1 230549Z 34012G18KT 13/12 A3005 RMK A01 T01310119  RH  093%=      5-min Rain = 0
KQU1 230550Z 35013KT 13/12 A3004 RMK A01 T01310118  RH  092%=      5-min Rain = 0
KQU1 230551Z 34013G19KT 13/12 A3004 RMK A01 T01310118  RH  092%=      5-min Rain = 0
KQU1 230552Z 35012G22KT 13/12 A3004 RMK A01 T01310118  RH  092%=      5-min Rain = 0
KQU1 230553Z 35011G23KT 13/12 A3004 RMK A01 T01310118  RH  092%=      5-min Rain = 0
KQU1 230554Z 35011KT 13/12 A3004 RMK A01 T01310118  RH  092%=      5-min Rain = 0
KQU1 230555Z 35012G18KT 13/12 A3005 RMK A01 T01310118  RH  092%=      5-min Rain = 0
KQU1 230556Z 34011G16KT 13/12 A3005 RMK A01 T01310118  RH  092%=      5-min Rain = 0
KQU1 230557Z 34010G15KT 13/12 A3005 RMK A01 T01310118  RH  092%=      5-min Rain = 0
KQU1 230558Z 35011G17KT 13/12 A3005 RMK A01 T01310118  RH  092%=      5-min Rain = 0
KQU1 230559Z 34011KT 13/12 A3005 RMK A01 T01310118  RH  092%=      5-min Rain = 0
KQU1 230600Z 34010G18KT 13/12 A3005 RMK A01 T01310118  RH  091%=      5-min Rain = 0
KQU1 230601Z 34013G18KT 13/12 A3005 RMK A01 T01320118  RH  091%=      5-min Rain = 0
KQU1 230602Z 35012G17KT 13/12 A3005 RMK A01 T01320118  RH  091%=      5-min Rain = 0
KQU1 230603Z 34012KT 13/12 A3005 RMK A01 T01320118  RH  091%=      5-min Rain = 0
KQU1 230604Z 34013G19KT 13/12 A3005 RMK A01 T01320118  RH  091%=      5-min Rain = 0
KQU1 230605Z 34014KT 13/12 A3005 RMK A01 T01320118  RH  091%=      5-min Rain = 0
KQU1 230606Z 34014KT 13/12 A3005 RMK A01 T01320118  RH  091%=      5-min Rain = 0
KQU1 230607Z 36013G19KT 13/12 A3005 RMK A01 T01320118  RH  091%=      5-min Rain = 0
KQU1 230608Z 35013KT 13/12 A3004 RMK A01 T01320118  RH  092%=      5-min Rain = 0
KQU1 230609Z 35010G19KT 13/12 A3004 RMK A01 T01320119  RH  092%=      5-min Rain = 0
KQU1 230610Z 35012G20KT 13/12 A3004 RMK A01 T01320118  RH  092%=      5-min Rain = 0
KQU1 230611Z 36012G17KT 13/12 A3004 RMK A01 T01310118  RH  092%=      5-min Rain = 0
KQU1 230612Z 35014G20KT 13/12 A3004 RMK A01 T01310118  RH  092%=      5-min Rain = 0
KQU1 230613Z 35011G20KT 13/12 A3004 RMK A01 T01320118  RH  092%=      5-min Rain = 0
KQU1 230614Z 35010KT 13/12 A3005 RMK A01 T01310118  RH  092%=      5-min Rain = 0
KQU1 230615Z 36008G14KT 13/12 A3005 RMK A01 T01310118  RH  092%=      5-min Rain = 0
KQU1 230616Z 34010KT 13/12 A3005 RMK A01 T01310119  RH  092%=      5-min Rain = 0
KQU1 230617Z 36011G16KT 13/12 A3005 RMK A01 T01310118  RH  092%=      5-min Rain = 0
KQU1 230618Z 00009G16KT 13/12 A3005 RMK A01 T01310118  RH  092%=      5-min Rain = 0
KQU1 230619Z 01007G12KT 13/12 A3005 RMK A01 T01310118  RH  092%=      5-min Rain = 0
KQU1 230620Z 35007KT 13/12 A3005 RMK A01 T01310119  RH  092%=      5-min Rain = 0
KQU1 230621Z 00007KT 13/12 A3005 RMK A01 T01310119  RH  092%=      5-min Rain = 0
KQU1 230622Z 36006KT 13/12 A3005 RMK A01 T01310119  RH  092%=      5-min Rain = 0
KQU1 230623Z 00008KT 13/12 A3005 RMK A01 T01310119  RH  092%=      5-min Rain = 0
KQU1 230624Z 36009G16KT 13/12 A3005 RMK A01 T01310119  RH  092%=      5-min Rain = 0
KQU1 230625Z 36009KT 13/12 A3005 RMK A01 T01310119  RH  093%=      5-min Rain = 0
KQU1 230626Z 35009G15KT 13/12 A3005 RMK A01 T01300119  RH  093%=      5-min Rain = 0
KQU1 230627Z 36007KT 13/12 A3005 RMK A01 T01300119  RH  093%=      5-min Rain = 0
KQU1 230628Z 35011KT 13/12 A3005 RMK A01 T01300119  RH  093%=      5-min Rain = 0
KQU1 230629Z 35010KT 13/12 A3005 RMK A01 T01300119  RH  093%=      5-min Rain = 0
KQU1 230630Z 01006KT 13/12 A3006 RMK A01 T01300119  RH  093%=      5-min Rain = 0
KQU1 230631Z 36010G15KT 13/12 A3006 RMK A01 T01300119  RH  093%=      5-min Rain = 0
KQU1 230632Z 36006KT 13/12 A3006 RMK A01 T01300119  RH  093%=      5-min Rain = 0
KQU1 230633Z 35009KT 13/12 A3006 RMK A01 T01300119  RH  093%=      5-min Rain = 0
KQU1 230634Z 00009G14KT 13/12 A3006 RMK A01 T01300119  RH  093%=      5-min Rain = 0
KQU1 230635Z 36009KT 13/12 A3006 RMK A01 T01300119  RH  093%=      5-min Rain = 0
KQU1 230636Z 35009KT 13/12 A3006 RMK A01 T01300119  RH  093%=      5-min Rain = 0
KQU1 230637Z 00005G10KT 13/12 A3006 RMK A01 T01300119  RH  093%=      5-min Rain = 0
KQU1 230638Z 34005G10KT 13/12 A3006 RMK A01 T01300120  RH  094%=      5-min Rain = 0
KQU1 230639Z 00006KT 13/12 A3006 RMK A01 T01300120  RH  094%=      5-min Rain = 0
KQU1 230640Z 35007KT 13/12 A3006 RMK A01 T01300119  RH  093%=      5-min Rain = 0
KQU1 230641Z 35007KT 13/12 A3006 RMK A01 T01300119  RH  093%=      5-min Rain = 0
KQU1 230642Z 35006KT 13/12 A3007 RMK A01 T01300119  RH  094%=      5-min Rain = 0
KQU1 230643Z 34005KT 13/12 A3007 RMK A01 T01290119  RH  094%=      5-min Rain = 0
KQU1 230644Z 35003KT 13/12 A3007 RMK A01 T01300120  RH  094%=      5-min Rain = 0
KQU1 230645Z 34005KT 13/12 A3008 RMK A01 T01300120  RH  094%=      5-min Rain = 0
KQU1 230646Z 32005KT 13/12 A3008 RMK A01 T01290119  RH  093%=      5-min Rain = 0
KQU1 230647Z 32006KT 13/12 A3009 RMK A01 T01300119  RH  094%=      5-min Rain = 0
KQU1 230648Z 33006KT 13/12 A3009 RMK A01 T01300119  RH  093%=      5-min Rain = 0
KQU1 230649Z 31005KT 13/12 A3009 RMK A01 T01300119  RH  093%=      5-min Rain = 0.01
KQU1 230650Z 31005KT 13/12 A3009 RMK A01 T01300120  RH  093%=      5-min Rain = 0
KQU1 230651Z 32008KT 13/12 A3009 RMK A01 T01300120  RH  093%=      5-min Rain = 0
KQU1 230652Z 32006KT 13/12 A3009 RMK A01 T01300120  RH  093%=      5-min Rain = 0
KQU1 230653Z 33007KT 13/12 A3009 RMK A01 T01300120  RH  093%=      5-min Rain = 0.01
KQU1 230654Z 34006KT 13/12 A3009 RMK A01 T01300120  RH  093%=      5-min Rain = 0.01
KQU1 230655Z 35009KT 13/12 A3009 RMK A01 T01300120  RH  094%=      5-min Rain = 0.01
KQU1 230656Z 00006KT 13/12 A3009 RMK A01 T01300120  RH  094%=      5-min Rain = 0.01
KQU1 230657Z 35007KT 13/12 A3008 RMK A01 T01290120  RH  094%=      5-min Rain = 0.01
KQU1 230658Z 00006KT 13/12 A3008 RMK A01 T01290120  RH  094%=      5-min Rain = 0.01
KQU1 230659Z 01007KT 13/12 A3008 RMK A01 T01290120  RH  094%=      5-min Rain = 0.01
KQU1 230700Z 36007KT 13/12 A3008 RMK A01 T01290120  RH  094%=      5-min Rain = 0.01
KQU1 230701Z 01004G9KT 13/12 A3008 RMK A01 T01290120  RH  094%=      5-min Rain = 0
KQU1 230702Z 01006KT 13/12 A3007 RMK A01 T01290120  RH  095%=      5-min Rain = 0.01
KQU1 230703Z 00005KT 13/12 A3007 RMK A01 T01290120  RH  095%=      5-min Rain = 0
KQU1 230704Z 00007KT 13/12 A3007 RMK A01 T01290120  RH  095%=      5-min Rain = 0.01
KQU1 230705Z 00007G12KT 13/12 A3007 RMK A01 T01280120  RH  095%=      5-min Rain = 0
KQU1 230706Z 01009G14KT 13/12 A3007 RMK A01 T01280120  RH  095%=      5-min Rain = 0
KQU1 230707Z 01008KT 13/12 A3006 RMK A01 T01280120  RH  095%=      5-min Rain = 0.01
KQU1 230708Z 01007KT 13/12 A3006 RMK A01 T01280120  RH  095%=      5-min Rain = 0
KQU1 230709Z 00008G13KT 13/12 A3006 RMK A01 T01280120  RH  095%=      5-min Rain = 0
KQU1 230710Z 00007G14KT 13/12 A3006 RMK A01 T01280121  RH  095%=      5-min Rain = 0.01
KQU1 230711Z 00008G16KT 13/12 A3005 RMK A01 T01280121  RH  096%=      5-min Rain = 0
KQU1 230712Z 01011KT 13/12 A3005 RMK A01 T01270121  RH  096%=      5-min Rain = 0
KQU1 230713Z 36010G15KT 13/12 A3005 RMK A01 T01270120  RH  096%=      5-min Rain = 0
KQU1 230714Z 36011KT 13/12 A3005 RMK A01 T01270120  RH  096%=      5-min Rain = 0.01
KQU1 230715Z 36009KT 13/12 A3005 RMK A01 T01270121  RH  096%=      5-min Rain = 0
KQU1 230716Z 35009KT 13/12 A3005 RMK A01 T01270121  RH  096%=      5-min Rain = 0
KQU1 230717Z 00009KT 13/12 A3005 RMK A01 T01270121  RH  096%=      5-min Rain = 0
KQU1 230718Z 36008KT 13/12 A3005 RMK A01 T01270121  RH  096%=      5-min Rain = 0.01
KQU1 230719Z 36010G15KT 13/12 A3005 RMK A01 T01270121  RH  096%=      5-min Rain = 0
KQU1 230720Z 35009KT 13/12 A3005 RMK A01 T01270121  RH  096%=      5-min Rain = 0
KQU1 230721Z 36009KT 13/12 A3005 RMK A01 T01260121  RH  096%=      5-min Rain = 0
KQU1 230722Z 35006G11KT 13/12 A3005 RMK A01 T01260121  RH  096%=      5-min Rain = 0
KQU1 230723Z 00006G11KT 13/12 A3005 RMK A01 T01260121  RH  096%=      5-min Rain = 0
KQU1 230724Z 01005KT 13/12 A3005 RMK A01 T01260121  RH  096%=      5-min Rain = 0
KQU1 230725Z 01006G11KT 13/12 A3005 RMK A01 T01260121  RH  097%=      5-min Rain = 0
KQU1 230726Z 01004KT 13/12 A3005 RMK A01 T01260121  RH  097%=      5-min Rain = 0
KQU1 230727Z 02004KT 13/12 A3005 RMK A01 T01260121  RH  097%=      5-min Rain = 0
KQU1 230728Z 01005KT 13/12 A3005 RMK A01 T01260121  RH  097%=      5-min Rain = 0
KQU1 230729Z 00004G9KT 13/12 A3005 RMK A01 T01260121  RH  097%=      5-min Rain = 0
KQU1 230730Z 01005KT 13/12 A3005 RMK A01 T01260122  RH  097%=      5-min Rain = 0
KQU1 230731Z 35005KT 13/12 A3005 RMK A01 T01260121  RH  097%=      5-min Rain = 0
KQU1 230732Z 35004G11KT 13/12 A3005 RMK A01 T01260121  RH  097%=      5-min Rain = 0
KQU1 230733Z 00008KT 13/12 A3005 RMK A01 T01260121  RH  097%=      5-min Rain = 0
KQU1 230734Z 01004G9KT 13/12 A3005 RMK A01 T01260121  RH  097%=      5-min Rain = 0
KQU1 230735Z 00009KT 13/12 A3005 RMK A01 T01260121  RH  097%=      5-min Rain = 0
KQU1 230736Z 36006KT 13/12 A3005 RMK A01 T01260121  RH  097%=      5-min Rain = 0
KQU1 230737Z 01005KT 13/12 A3005 RMK A01 T01260122  RH  097%=      5-min Rain = 0
KQU1 230738Z 00006KT 13/12 A3005 RMK A01 T01260122  RH  097%=      5-min Rain = 0
KQU1 230739Z 36006KT 13/12 A3005 RMK A01 T01260122  RH  097%=      5-min Rain = 0
KQU1 230740Z 01006KT 13/12 A3005 RMK A01 T01270122  RH  097%=      5-min Rain = 0
KQU1 230741Z 35007KT 13/12 A3005 RMK A01 T01270122  RH  097%=      5-min Rain = 0
KQU1 230742Z 35006KT 13/12 A3004 RMK A01 T01260122  RH  097%=      5-min Rain = 0
KQU1 230743Z 00005KT 13/12 A3004 RMK A01 T01260122  RH  097%=      5-min Rain = 0
KQU1 230744Z 35006KT 13/12 A3004 RMK A01 T01260122  RH  097%=      5-min Rain = 0
KQU1 230745Z 36006KT 13/12 A3004 RMK A01 T01260122  RH  097%=      5-min Rain = 0
KQU1 230746Z 36005KT 13/12 A3004 RMK A01 T01260122  RH  097%=      5-min Rain = 0
KQU1 230747Z 36007KT 13/12 A3004 RMK A01 T01260122  RH  097%=      5-min Rain = 0
KQU1 230748Z 35005KT 13/12 A3004 RMK A01 T01260122  RH  097%=      5-min Rain = 0.01
KQU1 230749Z 00006KT 13/12 A3004 RMK A01 T01260122  RH  097%=      5-min Rain = 0
KQU1 230750Z 35009KT 13/12 A3004 RMK A01 T01260122  RH  097%=      5-min Rain = 0
KQU1 230751Z 36005KT 13/12 A3004 RMK A01 T01260121  RH  097%=      5-min Rain = 0
KQU1 230752Z 00006KT 13/12 A3004 RMK A01 T01260121  RH  097%=      5-min Rain = 0
KQU1 230753Z 36007KT 13/12 A3004 RMK A01 T01260122  RH  097%=      5-min Rain = 0
KQU1 230754Z 36006KT 13/12 A3004 RMK A01 T01260122  RH  097%=      5-min Rain = 0.01
KQU1 230755Z 00009KT 13/12 A3003 RMK A01 T01260122  RH  097%=      5-min Rain = 0
KQU1 230756Z 00009KT 13/12 A3003 RMK A01 T01260122  RH  097%=      5-min Rain = 0
KQU1 230757Z 36008G13KT 13/12 A3003 RMK A01 T01260122  RH  097%=      5-min Rain = 0
KQU1 230758Z 36009G16KT 13/12 A3002 RMK A01 T01260122  RH  097%=      5-min Rain = 0
KQU1 230759Z 35011KT 13/12 A3002 RMK A01 T01260122  RH  097%=      5-min Rain = 0
KQU1 230800Z 35010KT 13/12 A3002 RMK A01 T01260122  RH  097%=      5-min Rain = 0.01
KQU1 230801Z 35008G13KT 13/12 A3002 RMK A01 T01260122  RH  097%=      5-min Rain = 0
KQU1 230802Z 35009G14KT 13/12 A3002 RMK A01 T01260122  RH  097%=      5-min Rain = 0
KQU1 230803Z 00007KT 13/12 A3002 RMK A01 T01260122  RH  097%=      5-min Rain = 0
KQU1 230804Z 34007G12KT 13/12 A3002 RMK A01 T01260122  RH  097%=      5-min Rain = 0
KQU1 230805Z 35007KT 13/12 A3002 RMK A01 T01260122  RH  097%=      5-min Rain = 0.01
KQU1 230806Z 35009KT 13/12 A3002 RMK A01 T01260122  RH  097%=      5-min Rain = 0
KQU1 230807Z 36007KT 13/12 A3002 RMK A01 T01260122  RH  097%=      5-min Rain = 0
KQU1 230808Z 35009G14KT 13/12 A3002 RMK A01 T01250122  RH  097%=      5-min Rain = 0
KQU1 230809Z 35010KT 13/12 A3002 RMK A01 T01250121  RH  097%=      5-min Rain = 0
KQU1 230810Z 35008KT 13/12 A3002 RMK A01 T01250121  RH  098%=      5-min Rain = 0
KQU1 230811Z 36008G13KT 13/12 A3002 RMK A01 T01250122  RH  098%=      5-min Rain = 0
KQU1 230812Z 00009KT 13/12 A3002 RMK A01 T01250121  RH  098%=      5-min Rain = 0
KQU1 230813Z 36007G12KT 13/12 A3002 RMK A01 T01250122  RH  098%=      5-min Rain = 0
KQU1 230814Z 35009KT 13/12 A3002 RMK A01 T01250122  RH  098%=      5-min Rain = 0
KQU1 230815Z 36007KT 13/12 A3002 RMK A01 T01250122  RH  098%=      5-min Rain = 0
KQU1 230816Z 00007KT 13/12 A3002 RMK A01 T01250122  RH  098%=      5-min Rain = 0
KQU1 230817Z 35007KT 13/12 A3002 RMK A01 T01250122  RH  098%=      5-min Rain = 0
KQU1 230818Z 00007KT 13/12 A3002 RMK A01 T01250122  RH  098%=      5-min Rain = 0
KQU1 230819Z 00008KT 13/12 A3002 RMK A01 T01250122  RH  098%=      5-min Rain = 0
KQU1 230820Z 36005KT 13/12 A3002 RMK A01 T01250122  RH  098%=      5-min Rain = 0
KQU1 230821Z 35007KT 13/12 A3002 RMK A01 T01260122  RH  098%=      5-min Rain = 0
KQU1 230822Z 36009KT 13/12 A3002 RMK A01 T01250122  RH  098%=      5-min Rain = 0
KQU1 230823Z 35009KT 13/12 A3002 RMK A01 T01250122  RH  098%=      5-min Rain = 0
KQU1 230824Z 01003G8KT 13/12 A3002 RMK A01 T01250122  RH  098%=      5-min Rain = 0
KQU1 230825Z 00002KT 13/12 A3002 RMK A01 T01250122  RH  098%=      5-min Rain = 0
KQU1 230826Z 36005KT 13/12 A3002 RMK A01 T01250122  RH  098%=      5-min Rain = 0
KQU1 230827Z 35007KT 13/12 A3003 RMK A01 T01260122  RH  098%=      5-min Rain = 0
KQU1 230828Z 36008KT 13/12 A3003 RMK A01 T01250122  RH  098%=      5-min Rain = 0
KQU1 230829Z 35006KT 13/12 A3003 RMK A01 T01250122  RH  098%=      5-min Rain = 0
KQU1 230830Z 36007G12KT 13/12 A3002 RMK A01 T01250122  RH  098%=      5-min Rain = 0
KQU1 230831Z 35007G12KT 13/12 A3002 RMK A01 T01250122  RH  098%=      5-min Rain = 0
KQU1 230832Z 36008G13KT 13/12 A3002 RMK A01 T01250122  RH  098%=      5-min Rain = 0
KQU1 230833Z 00009KT 13/12 A3002 RMK A01 T01250122  RH  098%=      5-min Rain = 0.01
KQU1 230834Z 00008G14KT 13/12 A3002 RMK A01 T01250122  RH  098%=      5-min Rain = 0
KQU1 230835Z 36007KT 13/12 A3002 RMK A01 T01250122  RH  098%=      5-min Rain = 0
KQU1 230836Z 35006KT 13/12 A3002 RMK A01 T01250122  RH  098%=      5-min Rain = 0
KQU1 230837Z 35006KT 13/12 A3002 RMK A01 T01260122  RH  098%=      5-min Rain = 0
KQU1 230838Z 35008KT 13/12 A3002 RMK A01 T01260122  RH  098%=      5-min Rain = 0.01
KQU1 230839Z 34009KT 13/12 A3002 RMK A01 T01250122  RH  098%=      5-min Rain = 0
KQU1 230840Z 34009KT 13/12 A3002 RMK A01 T01250122  RH  098%=      5-min Rain = 0
KQU1 230841Z 34011KT 13/12 A3002 RMK A01 T01250122  RH  098%=      5-min Rain = 0
KQU1 230842Z 34008KT 13/12 A3002 RMK A01 T01250122  RH  098%=      5-min Rain = 0
KQU1 230843Z 34010KT 13/12 A3003 RMK A01 T01250122  RH  098%=      5-min Rain = 0
KQU1 230844Z 34009KT 13/12 A3003 RMK A01 T01250122  RH  098%=      5-min Rain = 0.01
KQU1 230845Z 34006KT 13/12 A3003 RMK A01 T01250122  RH  098%=      5-min Rain = 0
KQU1 230846Z 35008KT 13/12 A3003 RMK A01 T01250122  RH  098%=      5-min Rain = 0
KQU1 230847Z 35008KT 13/12 A3003 RMK A01 T01250122  RH  098%=      5-min Rain = 0
KQU1 230848Z 35009KT 13/12 A3003 RMK A01 T01250122  RH  098%=      5-min Rain = 0
KQU1 230849Z 35007KT 13/12 A3003 RMK A01 T01250122  RH  098%=      5-min Rain = 0
KQU1 230850Z 34007KT 13/12 A3003 RMK A01 T01250122  RH  098%=      5-min Rain = 0
KQU1 230851Z 35008KT 13/12 A3003 RMK A01 T01250122  RH  098%=      5-min Rain = 0
KQU1 230852Z 33007KT 13/12 A3003 RMK A01 T01250122  RH  098%=      5-min Rain = 0.01
KQU1 230853Z 35008KT 13/12 A3003 RMK A01 T01250122  RH  098%=      5-min Rain = 0
KQU1 230854Z 34007KT 13/12 A3003 RMK A01 T01250122  RH  098%=      5-min Rain = 0
KQU1 230855Z 34007KT 13/12 A3003 RMK A01 T01250122  RH  098%=      5-min Rain = 0
KQU1 230856Z 34007KT 13/12 A3003 RMK A01 T01260123  RH  098%=      5-min Rain = 0.01
KQU1 230857Z 34008KT 13/12 A3003 RMK A01 T01260123  RH  098%=      5-min Rain = 0
KQU1 230858Z 35008KT 13/12 A3003 RMK A01 T01260123  RH  098%=      5-min Rain = 0
KQU1 230859Z 34008KT 13/12 A3003 RMK A01 T01260123  RH  098%=      5-min Rain = 0
KQU1 230900Z 34009KT 13/12 A3003 RMK A01 T01260123  RH  098%=      5-min Rain = 0
KQU1 230901Z 35006G11KT 13/12 A3003 RMK A01 T01260123  RH  098%=      5-min Rain = 0
KQU1 230902Z 35009KT 13/12 A3003 RMK A01 T01260123  RH  098%=      5-min Rain = 0
KQU1 230903Z 35010KT 13/12 A3003 RMK A01 T01260123  RH  098%=      5-min Rain = 0
KQU1 230904Z 33010KT 13/12 A3003 RMK A01 T01260123  RH  098%=      5-min Rain = 0.01
KQU1 230905Z 35008KT 13/12 A3003 RMK A01 T01260123  RH  098%=      5-min Rain = 0
KQU1 230906Z 33007KT 13/12 A3003 RMK A01 T01260123  RH  098%=      5-min Rain = 0
KQU1 230907Z 34009KT 13/12 A3003 RMK A01 T01260123  RH  098%=      5-min Rain = 0
KQU1 230908Z 34008KT 13/12 A3003 RMK A01 T01260123  RH  098%=      5-min Rain = 0
KQU1 230909Z 33010KT 13/12 A3003 RMK A01 T01270123  RH  098%=      5-min Rain = 0
KQU1 230910Z 33010KT 13/12 A3003 RMK A01 T01270123  RH  098%=      5-min Rain = 0
KQU1 230911Z 34008KT 13/12 A3003 RMK A01 T01270123  RH  098%=      5-min Rain = 0
KQU1 230912Z 34009KT 13/12 A3003 RMK A01 T01270123  RH  098%=      5-min Rain = 0
KQU1 230913Z 34007KT 13/12 A3003 RMK A01 T01270123  RH  098%=      5-min Rain = 0
KQU1 230914Z 34008KT 13/12 A3003 RMK A01 T01270123  RH  098%=      5-min Rain = 0
KQU1 230915Z 35006KT 13/12 A3003 RMK A01 T01270123  RH  098%=      5-min Rain = 0
KQU1 230916Z 36004KT 13/12 A3002 RMK A01 T01270124  RH  098%=      5-min Rain = 0.01
KQU1 230917Z 01007KT 13/12 A3002 RMK A01 T01270124  RH  098%=      5-min Rain = 0
KQU1 230918Z 01005G11KT 13/12 A3002 RMK A01 T01270124  RH  098%=      5-min Rain = 0.01
KQU1 230919Z 01006KT 13/12 A3002 RMK A01 T01270124  RH  098%=      5-min Rain = 0
KQU1 230920Z 01008KT 13/12 A3001 RMK A01 T01270124  RH  098%=      5-min Rain = 0
KQU1 230921Z 35006KT 13/12 A3002 RMK A01 T01270124  RH  098%=      5-min Rain = 0.01
KQU1 230922Z 00006KT 13/12 A3002 RMK A01 T01270123  RH  098%=      5-min Rain = 0
KQU1 230923Z 36004KT 13/12 A3002 RMK A01 T01270123  RH  098%=      5-min Rain = 0
KQU1 230924Z 36007G12KT 13/12 A3002 RMK A01 T01270123  RH  098%=      5-min Rain = 0
KQU1 230925Z 35006KT 13/12 A3002 RMK A01 T01270123  RH  098%=      5-min Rain = 0
KQU1 230926Z 36006KT 13/12 A3002 RMK A01 T01270124  RH  098%=      5-min Rain = 0
KQU1 230927Z 36007KT 13/12 A3002 RMK A01 T01270124  RH  098%=      5-min Rain = 0
KQU1 230928Z 36007KT 13/12 A3001 RMK A01 T01270123  RH  098%=      5-min Rain = 0
KQU1 230929Z 00007KT 13/12 A3001 RMK A01 T01270123  RH  098%=      5-min Rain = 0
KQU1 230930Z 01008G13KT 13/12 A3001 RMK A01 T01270123  RH  098%=      5-min Rain = 0
KQU1 230931Z 01006KT 13/12 A3001 RMK A01 T01270123  RH  098%=      5-min Rain = 0
KQU1 230932Z 01006KT 13/12 A30 RMK A01 T01270124  RH  098%=      5-min Rain = 0
KQU1 230933Z 02006KT 13/12 A30 RMK A01 T01270124  RH  098%=      5-min Rain = 0
KQU1 230934Z 01006KT 13/12 A30 RMK A01 T01270124  RH  098%=      5-min Rain = 0
KQU1 230935Z 01004KT 13/12 A30 RMK A01 T01270124  RH  098%=      5-min Rain = 0
KQU1 230936Z 35004KT 13/12 A30 RMK A01 T01270124  RH  098%=      5-min Rain = 0
KQU1 230937Z 00007KT 13/12 A3001 RMK A01 T01270124  RH  098%=      5-min Rain = 0
KQU1 230938Z 02004KT 13/12 A3001 RMK A01 T01270124  RH  098%=      5-min Rain = 0
KQU1 230939Z 35005KT 13/12 A3002 RMK A01 T01260123  RH  098%=      5-min Rain = 0
KQU1 230940Z 34006KT 13/12 A3002 RMK A01 T01260123  RH  098%=      5-min Rain = 0
KQU1 230941Z 33004KT 13/12 A3003 RMK A01 T01260123  RH  098%=      5-min Rain = 0
KQU1 230942Z 32005KT 13/12 A3003 RMK A01 T01260123  RH  098%=      5-min Rain = 0
KQU1 230943Z 31006KT 13/12 A3003 RMK A01 T01260123  RH  098%=      5-min Rain = 0
KQU1 230944Z 31007KT 13/12 A3004 RMK A01 T01260123  RH  098%=      5-min Rain = 0.01
KQU1 230945Z 30006KT 13/12 A3004 RMK A01 T01260124  RH  098%=      5-min Rain = 0
KQU1 230946Z 30006KT 13/12 A3004 RMK A01 T01260124  RH  098%=      5-min Rain = 0
KQU1 230947Z 31007KT 13/12 A3004 RMK A01 T01270124  RH  098%=      5-min Rain = 0
KQU1 230948Z 32007KT 13/12 A3004 RMK A01 T01270124  RH  098%=      5-min Rain = 0.01
KQU1 230949Z 32007KT 13/12 A3004 RMK A01 T01270124  RH  098%=      5-min Rain = 0
KQU1 230950Z 32008KT 13/12 A3004 RMK A01 T01270124  RH  098%=      5-min Rain = 0.01
KQU1 230951Z 31007KT 13/12 A3004 RMK A01 T01270124  RH  098%=      5-min Rain = 0
KQU1 230952Z 33006KT 13/12 A3004 RMK A01 T01270124  RH  098%=      5-min Rain = 0.01
KQU1 230953Z 32008KT 13/12 A3005 RMK A01 T01270124  RH  098%=      5-min Rain = 0
KQU1 230954Z 31007KT 13/12 A3005 RMK A01 T01270124  RH  098%=      5-min Rain = 0.01
KQU1 230955Z 30008KT 13/12 A3005 RMK A01 T01270124  RH  098%=      5-min Rain = 0
KQU1 230956Z 33007KT 13/12 A3005 RMK A01 T01270124  RH  098%=      5-min Rain = 0.01
KQU1 230957Z 34006KT 13/12 A3005 RMK A01 T01270124  RH  098%=      5-min Rain = 0
KQU1 230958Z 35005KT 13/12 A3004 RMK A01 T01270124  RH  098%=      5-min Rain = 0.01
KQU1 230959Z 34007KT 13/12 A3004 RMK A01 T01270124  RH  098%=      5-min Rain = 0
KQU1 231000Z 35006KT 13/12 A3004 RMK A01 T01270124  RH  098%=      5-min Rain = 0.01
KQU1 231001Z 35005KT 13/12 A3004 RMK A01 T01270124  RH  098%=      5-min Rain = 0
KQU1 231002Z 34005KT 13/12 A3004 RMK A01 T01270124  RH  098%=      5-min Rain = 0.01
KQU1 231003Z 36004KT 13/13 A3004 RMK A01 T01270125  RH  098%=      5-min Rain = 0
KQU1 231004Z 35006KT 13/13 A3004 RMK A01 T01270125  RH  098%=      5-min Rain = 0
KQU1 231005Z 35007KT 13/13 A3003 RMK A01 T01270125  RH  098%=      5-min Rain = 0.01
KQU1 231006Z 35006KT 13/12 A3003 RMK A01 T01270124  RH  098%=      5-min Rain = 0
KQU1 231007Z 35007KT 13/12 A3003 RMK A01 T01270124  RH  098%=      5-min Rain = 0
KQU1 231008Z 35006G11KT 13/12 A3003 RMK A01 T01270124  RH  098%=      5-min Rain = 0
KQU1 231009Z 00006G11KT 13/13 A3002 RMK A01 T01270125  RH  098%=      5-min Rain = 0
KQU1 231010Z 35006KT 13/13 A3002 RMK A01 T01270125  RH  098%=      5-min Rain = 0
KQU1 231011Z 35006G11KT 13/13 A3002 RMK A01 T01270125  RH  098%=      5-min Rain = 0
KQU1 231012Z 36006KT 13/13 A3002 RMK A01 T01270125  RH  098%=      5-min Rain = 0.01
KQU1 231013Z 00004KT 13/13 A3002 RMK A01 T01270125  RH  098%=      5-min Rain = 0
KQU1 231014Z 00005KT 13/13 A3002 RMK A01 T01270125  RH  098%=      5-min Rain = 0
KQU1 231015Z 00006KT 13/13 A3002 RMK A01 T01280125  RH  098%=      5-min Rain = 0
KQU1 231016Z 01007G12KT 13/13 A3002 RMK A01 T01270125  RH  098%=      5-min Rain = 0
KQU1 231017Z 36005G10KT 13/13 A3002 RMK A01 T01270125  RH  098%=      5-min Rain = 0
KQU1 231018Z 35008KT 13/13 A3002 RMK A01 T01270125  RH  098%=      5-min Rain = 0.01
KQU1 231019Z 36007KT 13/12 A3002 RMK A01 T01270124  RH  098%=      5-min Rain = 0
KQU1 231020Z 36006KT 13/12 A3002 RMK A01 T01270124  RH  098%=      5-min Rain = 0
KQU1 231021Z 36005KT 13/13 A3002 RMK A01 T01270125  RH  098%=      5-min Rain = 0
KQU1 231022Z 36005G10KT 13/13 A3001 RMK A01 T01270125  RH  098%=      5-min Rain = 0
KQU1 231023Z 01005KT 13/13 A3001 RMK A01 T01270125  RH  098%=      5-min Rain = 0
KQU1 231024Z 36005KT 13/13 A3001 RMK A01 T01270125  RH  098%=      5-min Rain = 0
KQU1 231025Z 00006G12KT 13/13 A3001 RMK A01 T01270125  RH  098%=      5-min Rain = 0
KQU1 231026Z 01006KT 13/12 A3001 RMK A01 T01270124  RH  098%=      5-min Rain = 0
KQU1 231027Z 00007G12KT 13/12 A3001 RMK A01 T01270124  RH  098%=      5-min Rain = 0
KQU1 231028Z 01008KT 13/12 A3001 RMK A01 T01270124  RH  098%=      5-min Rain = 0
KQU1 231029Z 01008KT 13/12 A3001 RMK A01 T01270124  RH  098%=      5-min Rain = 0
KQU1 231030Z 01008KT 13/12 A3001 RMK A01 T01270124  RH  098%=      5-min Rain = 0
KQU1 231031Z 02007KT 13/12 A3001 RMK A01 T01270124  RH  098%=      5-min Rain = 0
KQU1 231032Z 01005KT 13/13 A3001 RMK A01 T01270125  RH  098%=      5-min Rain = 0
KQU1 231033Z 02005KT 13/13 A3001 RMK A01 T01270125  RH  098%=      5-min Rain = 0.01
KQU1 231034Z 01004KT 13/13 A3002 RMK A01 T01270125  RH  098%=      5-min Rain = 0
KQU1 231035Z 01007G12KT 13/13 A3002 RMK A01 T01270125  RH  098%=      5-min Rain = 0
KQU1 231036Z 01005G11KT 13/13 A3002 RMK A01 T01270125  RH  099%=      5-min Rain = 0
KQU1 231037Z 00002KT 13/13 A3002 RMK A01 T01270125  RH  099%=      5-min Rain = 0
KQU1 231038Z 02005KT 13/13 A3002 RMK A01 T01270125  RH  099%=      5-min Rain = 0
KQU1 231039Z 00005KT 13/13 A3002 RMK A01 T01270125  RH  099%=      5-min Rain = 0
KQU1 231040Z 36004G9KT 13/13 A3002 RMK A01 T01270125  RH  099%=      5-min Rain = 0
KQU1 231041Z 01007KT 13/13 A3002 RMK A01 T01270125  RH  099%=      5-min Rain = 0
KQU1 231042Z 01005KT 13/12 A3002 RMK A01 T01270124  RH  098%=      5-min Rain = 0
KQU1 231043Z 00006KT 13/13 A3002 RMK A01 T01270125  RH  099%=      5-min Rain = 0
KQU1 231044Z 00006KT 13/12 A3002 RMK A01 T01270124  RH  099%=      5-min Rain = 0
KQU1 231045Z 01007KT 13/12 A3002 RMK A01 T01270124  RH  099%=      5-min Rain = 0
KQU1 231046Z 01006KT 13/12 A3002 RMK A01 T01270124  RH  099%=      5-min Rain = 0
KQU1 231047Z 00006KT 13/12 A3003 RMK A01 T01270124  RH  099%=      5-min Rain = 0
KQU1 231048Z 36006KT 13/12 A3003 RMK A01 T01270124  RH  099%=      5-min Rain = 0
KQU1 231049Z 36006KT 13/13 A3003 RMK A01 T01270125  RH  099%=      5-min Rain = 0
KQU1 231050Z 00004KT 13/12 A3003 RMK A01 T01270124  RH  099%=      5-min Rain = 0
KQU1 231051Z 35005KT 13/12 A3004 RMK A01 T01270124  RH  099%=      5-min Rain = 0
KQU1 231052Z 34003KT 13/13 A3004 RMK A01 T01270125  RH  099%=      5-min Rain = 0
KQU1 231053Z 35002KT 13/13 A3005 RMK A01 T01270125  RH  099%=      5-min Rain = 0
KQU1 231054Z 31001KT 13/13 A3005 RMK A01 T01270125  RH  099%=      5-min Rain = 0
KQU1 231055Z 32003KT 13/13 A3005 RMK A01 T01270125  RH  099%=      5-min Rain = 0
KQU1 231056Z 33003KT 13/12 A3006 RMK A01 T01270124  RH  099%=      5-min Rain = 0.01
KQU1 231057Z 33002KT 13/12 A3006 RMK A01 T01260124  RH  099%=      5-min Rain = 0
KQU1 231058Z 33003KT 13/12 A3006 RMK A01 T01260124  RH  099%=      5-min Rain = 0
KQU1 231059Z 33002KT 13/12 A3007 RMK A01 T01260124  RH  099%=      5-min Rain = 0
KQU1 231100Z 30002KT 13/12 A3007 RMK A01 T01260124  RH  099%=      5-min Rain = 0.01
KQU1 231101Z 30001KT 13/12 A3007 RMK A01 T01260124  RH  099%=      5-min Rain = 0
KQU1 231102Z 33001KT 13/13 A3007 RMK A01 T01270125  RH  099%=      5-min Rain = 0
KQU1 231103Z 33000KT 13/13 A3007 RMK A01 T01270125  RH  099%=      5-min Rain = 0.01
KQU1 231104Z 00000KT 13/13 A3007 RMK A01 T01270125  RH  099%=      5-min Rain = 0
KQU1 231105Z 00000KT 13/13 A3007 RMK A01 T01270125  RH  099%=      5-min Rain = 0.01
KQU1 231106Z 00000KT 13/12 A3007 RMK A01 T01270124  RH  099%=      5-min Rain = 0
KQU1 231107Z 00000KT 13/12 A3007 RMK A01 T01270124  RH  099%=      5-min Rain = 0.01
KQU1 231108Z 00000KT 13/12 A3007 RMK A01 T01270124  RH  099%=      5-min Rain = 0.01
KQU1 231109Z 00000KT 13/13 A3007 RMK A01 T01270125  RH  099%=      5-min Rain = 0.01
KQU1 231110Z 01002KT 13/13 A3007 RMK A01 T01270125  RH  099%=      5-min Rain = 0.01
KQU1 231111Z 36002KT 13/13 A3007 RMK A01 T01270125  RH  099%=      5-min Rain = 0
KQU1 231112Z 34003KT 13/13 A3007 RMK A01 T01270125  RH  099%=      5-min Rain = 0.01
KQU1 231113Z 33005KT 13/13 A3007 RMK A01 T01270125  RH  099%=      5-min Rain = 0.01
KQU1 231114Z 32005KT 13/13 A3007 RMK A01 T01270125  RH  099%=      5-min Rain = 0
KQU1 231115Z 32005KT 13/13 A3007 RMK A01 T01270125  RH  099%=      5-min Rain = 0.01
KQU1 231116Z 33006KT 13/13 A3007 RMK A01 T01270125  RH  099%=      5-min Rain = 0.01
KQU1 231117Z 33006KT 13/13 A3007 RMK A01 T01270125  RH  099%=      5-min Rain = 0.01
KQU1 231118Z 33006KT 13/13 A3007 RMK A01 T01270125  RH  099%=      5-min Rain = 0.01
KQU1 231119Z 33006KT 13/13 A3007 RMK A01 T01270125  RH  099%=      5-min Rain = 0.01
KQU1 231120Z 33006KT 13/12 A3007 RMK A01 T01270124  RH  099%=      5-min Rain = 0.01
KQU1 231121Z 33006KT 13/12 A3007 RMK A01 T01260124  RH  099%=      5-min Rain = 0
KQU1 231122Z 33006KT 13/12 A3007 RMK A01 T01260124  RH  099%=      5-min Rain = 0.01
KQU1 231123Z 34006KT 13/12 A3007 RMK A01 T01260124  RH  099%=      5-min Rain = 0.01
KQU1 231124Z 35005KT 13/12 A3007 RMK A01 T01260124  RH  099%=      5-min Rain = 0.01
KQU1 231125Z 01005KT 13/13 A3006 RMK A01 T01270125  RH  099%=      5-min Rain = 0
KQU1 231126Z 01005KT 13/13 A3006 RMK A01 T01270125  RH  099%=      5-min Rain = 0.01
KQU1 231127Z 02004KT 13/13 A3006 RMK A01 T01270125  RH  099%=      5-min Rain = 0.01
KQU1 231128Z 00004KT 13/13 A3006 RMK A01 T01270125  RH  099%=      5-min Rain = 0.01
KQU1 231129Z 01003KT 13/13 A3006 RMK A01 T01270125  RH  099%=      5-min Rain = 0
KQU1 231130Z 35005KT 13/13 A3006 RMK A01 T01270125  RH  099%=      5-min Rain = 0.01
KQU1 231131Z 33005KT 13/13 A3006 RMK A01 T01270125  RH  099%=      5-min Rain = 0.01
KQU1 231132Z 32006KT 13/13 A3006 RMK A01 T01270125  RH  099%=      5-min Rain = 0
KQU1 231133Z 31006KT 13/12 A3006 RMK A01 T01260124  RH  099%=      5-min Rain = 0.02
KQU1 231134Z 31007KT 13/13 A3006 RMK A01 T01260125  RH  099%=      5-min Rain = 0
KQU1 231135Z 31007KT 13/12 A3006 RMK A01 T01260124  RH  099%=      5-min Rain = 0.01
KQU1 231136Z 32007KT 13/12 A3006 RMK A01 T01260124  RH  099%=      5-min Rain = 0.01
KQU1 231137Z 33007KT 13/12 A3005 RMK A01 T01260124  RH  099%=      5-min Rain = 0.01
KQU1 231138Z 34007KT 13/12 A3005 RMK A01 T01260124  RH  099%=      5-min Rain = 0.01
KQU1 231139Z 35009KT 13/12 A3003 RMK A01 T01260124  RH  099%=      5-min Rain = 0
KQU1 231140Z 00009G14KT 13/12 A3002 RMK A01 T01260124  RH  099%=      5-min Rain = 0.01
KQU1 231141Z 01006KT 13/12 A3001 RMK A01 T01260124  RH  099%=      5-min Rain = 0
KQU1 231142Z 01005KT 13/13 A30 RMK A01 T01260125  RH  099%=      5-min Rain = 0
KQU1 231143Z 36010G15KT 13/13 A3001 RMK A01 T01260125  RH  099%=      5-min Rain = 0.01
KQU1 231144Z 35008G13KT 13/12 A3001 RMK A01 T01260124  RH  099%=      5-min Rain = 0
KQU1 231145Z 35007G12KT 13/12 A3001 RMK A01 T01260124  RH  099%=      5-min Rain = 0
KQU1 231146Z 34011KT 13/12 A3002 RMK A01 T01260124  RH  099%=      5-min Rain = 0
KQU1 231147Z 34014KT 13/12 A3002 RMK A01 T01250124  RH  099%=      5-min Rain = 0
KQU1 231148Z 35011KT 13/12 A3002 RMK A01 T01250124  RH  099%=      5-min Rain = 0
KQU1 231149Z 35012KT 13/12 A3002 RMK A01 T01250124  RH  099%=      5-min Rain = 0
KQU1 231150Z 36010G15KT 13/12 A3001 RMK A01 T01260124  RH  099%=      5-min Rain = 0
KQU1 231151Z 00012G17KT 13/12 A3001 RMK A01 T01260124  RH  099%=      5-min Rain = 0
KQU1 231152Z 00009G14KT 13/12 A3001 RMK A01 T01260124  RH  099%=      5-min Rain = 0
KQU1 231153Z 35010G16KT 13/12 A3001 RMK A01 T01260124  RH  099%=      5-min Rain = 0
KQU1 231154Z 35010KT 13/12 A3002 RMK A01 T01260124  RH  099%=      5-min Rain = 0
KQU1 231155Z 36009G14KT 13/12 A3002 RMK A01 T01260124  RH  099%=      5-min Rain = 0
KQU1 231156Z 35008KT 13/12 A3002 RMK A01 T01260124  RH  099%=      5-min Rain = 0
KQU1 231157Z 36010G15KT 13/12 A3003 RMK A01 T01260124  RH  099%=      5-min Rain = 0
KQU1 231158Z 36010G15KT 13/12 A3003 RMK A01 T01260124  RH  099%=      5-min Rain = 0
KQU1 231159Z 35009KT 13/12 A3003 RMK A01 T01260124  RH  099%=      5-min Rain = 0
KQU1 231200Z 00009G16KT 13/12 A3003 RMK A01 T01260124  RH  099%=      5-min Rain = 0
KQU1 231201Z 36006G12KT 13/12 A3003 RMK A01 T01260124  RH  099%=      5-min Rain = 0
KQU1 231202Z 35009KT 13/13 A3003 RMK A01 T01260125  RH  099%=      5-min Rain = 0
KQU1 231203Z 35010G15KT 13/13 A3004 RMK A01 T01260125  RH  099%=      5-min Rain = 0
KQU1 231204Z 34009KT 13/12 A3004 RMK A01 T01260124  RH  099%=      5-min Rain = 0
KQU1 231205Z 34009KT 13/12 A3005 RMK A01 T01260124  RH  099%=      5-min Rain = 0
KQU1 231206Z 34009KT 13/12 A3005 RMK A01 T01260124  RH  099%=      5-min Rain = 0
KQU1 231207Z 34009KT 13/12 A3005 RMK A01 T01260124  RH  099%=      5-min Rain = 0
KQU1 231208Z 34011KT 13/12 A3005 RMK A01 T01260124  RH  099%=      5-min Rain = 0
KQU1 231209Z 34008KT 13/12 A3005 RMK A01 T01260124  RH  099%=      5-min Rain = 0
KQU1 231210Z 35008KT 13/13 A3006 RMK A01 T01260125  RH  099%=      5-min Rain = 0
KQU1 231211Z 35010KT 13/13 A3006 RMK A01 T01260125  RH  099%=      5-min Rain = 0
KQU1 231212Z 35008G14KT 13/13 A3006 RMK A01 T01260125  RH  099%=      5-min Rain = 0
KQU1 231213Z 01007KT 13/13 A3006 RMK A01 T01270125  RH  099%=      5-min Rain = 0
KQU1 231214Z 01003KT 13/13 A3006 RMK A01 T01270125  RH  099%=      5-min Rain = 0
KQU1 231215Z 01005KT 13/13 A3006 RMK A01 T01270125  RH  099%=      5-min Rain = 0
KQU1 231216Z 36005KT 13/13 A3006 RMK A01 T01270125  RH  099%=      5-min Rain = 0
KQU1 231217Z 00004KT 13/13 A3006 RMK A01 T01270125  RH  099%=      5-min Rain = 0
KQU1 231218Z 35007KT 13/13 A3006 RMK A01 T01270125  RH  099%=      5-min Rain = 0
KQU1 231219Z 00005KT 13/13 A3006 RMK A01 T01270125  RH  099%=      5-min Rain = 0
KQU1 231220Z 02004KT 13/13 A3006 RMK A01 T01270125  RH  099%=      5-min Rain = 0
KQU1 231221Z 35008KT 13/13 A3006 RMK A01 T01270125  RH  099%=      5-min Rain = 0
KQU1 231222Z 00008KT 13/13 A3006 RMK A01 T01270125  RH  099%=      5-min Rain = 0
KQU1 231223Z 01008G13KT 13/13 A3006 RMK A01 T01270125  RH  099%=      5-min Rain = 0
KQU1 231224Z 02005KT 13/13 A3006 RMK A01 T01270125  RH  099%=      5-min Rain = 0
KQU1 231225Z 00005KT 13/13 A3006 RMK A01 T01270125  RH  099%=      5-min Rain = 0
KQU1 231226Z 02005KT 13/13 A3006 RMK A01 T01270125  RH  099%=      5-min Rain = 0
KQU1 231227Z 03005G10KT 13/13 A3006 RMK A01 T01270125  RH  099%=      5-min Rain = 0
KQU1 231228Z 01007KT 13/13 A3006 RMK A01 T01270125  RH  099%=      5-min Rain = 0
KQU1 231229Z 02004KT 13/13 A3006 RMK A01 T01270125  RH  099%=      5-min Rain = 0
KQU1 231230Z 00007KT 13/13 A3006 RMK A01 T01270125  RH  099%=      5-min Rain = 0
KQU1 231231Z 02005KT 13/13 A3006 RMK A01 T01270125  RH  099%=      5-min Rain = 0
KQU1 231232Z 03005KT 13/13 A3006 RMK A01 T01270125  RH  099%=      5-min Rain = 0
KQU1 231233Z 01005KT 13/13 A3006 RMK A01 T01270125  RH  099%=      5-min Rain = 0
KQU1 231234Z 01005G10KT 13/13 A3006 RMK A01 T01270125  RH  099%=      5-min Rain = 0
KQU1 231235Z 00006KT 13/13 A3006 RMK A01 T01270125  RH  099%=      5-min Rain = 0
KQU1 231236Z 01006KT 13/13 A3006 RMK A01 T01270125  RH  099%=      5-min Rain = 0
KQU1 231237Z 01005KT 13/13 A3006 RMK A01 T01270125  RH  099%=      5-min Rain = 0
KQU1 231238Z 36007KT 13/13 A3006 RMK A01 T01270125  RH  099%=      5-min Rain = 0
KQU1 231239Z 36005KT 13/13 A3006 RMK A01 T01270125  RH  099%=      5-min Rain = 0
KQU1 231240Z 01004KT 13/13 A3006 RMK A01 T01270125  RH  099%=      5-min Rain = 0
KQU1 231241Z 03006KT 13/13 A3006 RMK A01 T01270126  RH  099%=      5-min Rain = 0
KQU1 231242Z 02006KT 13/13 A3006 RMK A01 T01270126  RH  099%=      5-min Rain = 0
KQU1 231243Z 02006KT 13/13 A3006 RMK A01 T01270125  RH  099%=      5-min Rain = 0
KQU1 231244Z 02003KT 13/13 A3007 RMK A01 T01270125  RH  099%=      5-min Rain = 0
KQU1 231245Z 03006KT 13/13 A3007 RMK A01 T01270126  RH  099%=      5-min Rain = 0
KQU1 231246Z 02005KT 13/13 A3007 RMK A01 T01280126  RH  099%=      5-min Rain = 0
KQU1 231247Z 02005KT 13/13 A3007 RMK A01 T01280126  RH  099%=      5-min Rain = 0
KQU1 231248Z 02003KT 13/13 A3007 RMK A01 T01280126  RH  099%=      5-min Rain = 0
KQU1 231249Z 00005KT 13/13 A3007 RMK A01 T01280126  RH  099%=      5-min Rain = 0
KQU1 231250Z 03004KT 13/13 A3007 RMK A01 T01280126  RH  099%=      5-min Rain = 0
KQU1 231251Z 36004KT 13/13 A3007 RMK A01 T01280126  RH  099%=      5-min Rain = 0
KQU1 231252Z 00006KT 13/13 A3007 RMK A01 T01280126  RH  099%=      5-min Rain = 0
KQU1 231253Z 00006KT 13/13 A3007 RMK A01 T01280126  RH  099%=      5-min Rain = 0
KQU1 231254Z 36004KT 13/13 A3007 RMK A01 T01280126  RH  099%=      5-min Rain = 0
KQU1 231255Z 36005KT 13/13 A3007 RMK A01 T01280126  RH  099%=      5-min Rain = 0
KQU1 231256Z 36008KT 13/13 A3007 RMK A01 T01280126  RH  099%=      5-min Rain = 0
KQU1 231257Z 35005KT 13/13 A3007 RMK A01 T01280126  RH  099%=      5-min Rain = 0
KQU1 231258Z 36005KT 13/13 A3007 RMK A01 T01280126  RH  099%=      5-min Rain = 0
KQU1 231259Z 35005KT 13/13 A3007 RMK A01 T01280126  RH  099%=      5-min Rain = 0
KQU1 231300Z 00005KT 13/13 A3007 RMK A01 T01280126  RH  099%=      5-min Rain = 0
KQU1 231301Z 35004KT 13/13 A3007 RMK A01 T01280126  RH  099%=      5-min Rain = 0
KQU1 231302Z 36004KT 13/13 A3007 RMK A01 T01280126  RH  099%=      5-min Rain = 0
KQU1 231303Z 36007KT 13/13 A3007 RMK A01 T01280126  RH  099%=      5-min Rain = 0
KQU1 231304Z 36005KT 13/13 A3007 RMK A01 T01280126  RH  099%=      5-min Rain = 0
KQU1 231305Z 00005G10KT 13/13 A3007 RMK A01 T01280126  RH  099%=      5-min Rain = 0
KQU1 231306Z 00007KT 13/13 A3007 RMK A01 T01280126  RH  099%=      5-min Rain = 0
KQU1 231307Z 36007KT 13/13 A3007 RMK A01 T01280126  RH  099%=      5-min Rain = 0
KQU1 231308Z 36006KT 13/13 A3007 RMK A01 T01280126  RH  099%=      5-min Rain = 0
KQU1 231309Z 35004KT 13/13 A3007 RMK A01 T01280126  RH  099%=      5-min Rain = 0
KQU1 231310Z 01005KT 13/13 A3007 RMK A01 T01280126  RH  099%=      5-min Rain = 0
KQU1 231311Z 01004KT 13/13 A3007 RMK A01 T01280126  RH  099%=      5-min Rain = 0
KQU1 231312Z 01004KT 13/13 A3007 RMK A01 T01280126  RH  099%=      5-min Rain = 0
KQU1 231313Z 00005KT 13/13 A3007 RMK A01 T01280127  RH  099%=      5-min Rain = 0
KQU1 231314Z 01004KT 13/13 A3007 RMK A01 T01290127  RH  099%=      5-min Rain = 0
KQU1 231315Z 02004KT 13/13 A3007 RMK A01 T01290127  RH  099%=      5-min Rain = 0
KQU1 231316Z 02006KT 13/13 A3007 RMK A01 T01280127  RH  099%=      5-min Rain = 0
KQU1 231317Z 01005KT 13/13 A3007 RMK A01 T01290127  RH  099%=      5-min Rain = 0
KQU1 231318Z 36004KT 13/13 A3007 RMK A01 T01290127  RH  099%=      5-min Rain = 0
KQU1 231319Z 01005KT 13/13 A3008 RMK A01 T01280127  RH  099%=      5-min Rain = 0
KQU1 231320Z 03003KT 13/13 A3008 RMK A01 T01280127  RH  099%=      5-min Rain = 0
KQU1 231321Z 36004KT 13/13 A3008 RMK A01 T01290127  RH  099%=      5-min Rain = 0
KQU1 231322Z 00006KT 13/13 A3008 RMK A01 T01290127  RH  099%=      5-min Rain = 0
KQU1 231323Z 35007KT 13/13 A3009 RMK A01 T01290127  RH  099%=      5-min Rain = 0
KQU1 231324Z 01005KT 13/13 A3009 RMK A01 T01280126  RH  099%=      5-min Rain = 0
KQU1 231325Z 00007KT 13/13 A3009 RMK A01 T01280126  RH  099%=      5-min Rain = 0
KQU1 231326Z 35002KT 13/13 A3009 RMK A01 T01280127  RH  099%=      5-min Rain = 0
KQU1 231327Z 00002KT 13/13 A3009 RMK A01 T01280127  RH  099%=      5-min Rain = 0
KQU1 231328Z 36002KT 13/13 A3009 RMK A01 T01290127  RH  099%=      5-min Rain = 0
KQU1 231329Z 34004KT 13/13 A3009 RMK A01 T01290127  RH  099%=      5-min Rain = 0
KQU1 231330Z 36004KT 13/13 A3009 RMK A01 T01290127  RH  099%=      5-min Rain = 0
KQU1 231331Z 35004KT 13/13 A3009 RMK A01 T01290127  RH  099%=      5-min Rain = 0
KQU1 231332Z 35004KT 13/13 A3009 RMK A01 T01290127  RH  099%=      5-min Rain = 0
KQU1 231333Z 01003KT 13/13 A3009 RMK A01 T01290127  RH  099%=      5-min Rain = 0
KQU1 231334Z 36004KT 13/13 A3009 RMK A01 T01290127  RH  099%=      5-min Rain = 0
KQU1 231335Z 36005KT 13/13 A3009 RMK A01 T01290127  RH  099%=      5-min Rain = 0
KQU1 231336Z 35005KT 13/13 A3009 RMK A01 T01290128  RH  099%=      5-min Rain = 0
KQU1 231337Z 00003G9KT 13/13 A3009 RMK A01 T01290128  RH  099%=      5-min Rain = 0
KQU1 231338Z 35005KT 13/13 A3009 RMK A01 T01300128  RH  099%=      5-min Rain = 0
KQU1 231339Z 35005KT 13/13 A3009 RMK A01 T01300128  RH  099%=      5-min Rain = 0
KQU1 231340Z 00006KT 13/13 A3009 RMK A01 T01290128  RH  099%=      5-min Rain = 0
KQU1 231341Z 01004G9KT 13/13 A3009 RMK A01 T01290128  RH  099%=      5-min Rain = 0
KQU1 231342Z 00005KT 13/13 A3009 RMK A01 T01300128  RH  099%=      5-min Rain = 0
KQU1 231343Z 01005KT 13/13 A3009 RMK A01 T01290127  RH  099%=      5-min Rain = 0
KQU1 231344Z 35004KT 13/13 A3009 RMK A01 T01300128  RH  099%=      5-min Rain = 0
KQU1 231345Z 00004KT 13/13 A3009 RMK A01 T01300128  RH  099%=      5-min Rain = 0
KQU1 231346Z 36006KT 13/13 A3009 RMK A01 T01300128  RH  099%=      5-min Rain = 0
KQU1 231347Z 35004KT 13/13 A3009 RMK A01 T01300128  RH  099%=      5-min Rain = 0
KQU1 231348Z 01006KT 13/13 A3009 RMK A01 T01300128  RH  099%=      5-min Rain = 0
KQU1 231349Z 35002KT 13/13 A3009 RMK A01 T01300128  RH  099%=      5-min Rain = 0
KQU1 231350Z 03004KT 13/13 A3009 RMK A01 T01300128  RH  099%=      5-min Rain = 0
KQU1 231351Z 00003KT 13/13 A3009 RMK A01 T01300128  RH  099%=      5-min Rain = 0
KQU1 231352Z 35005KT 13/13 A3009 RMK A01 T01300128  RH  099%=      5-min Rain = 0
KQU1 231353Z 01005KT 13/13 A3009 RMK A01 T01300128  RH  099%=      5-min Rain = 0
KQU1 231354Z 00004KT 13/13 A3009 RMK A01 T01300128  RH  099%=      5-min Rain = 0
KQU1 231355Z 34004KT 13/13 A3009 RMK A01 T01300128  RH  099%=      5-min Rain = 0
KQU1 231356Z 01004KT 13/13 A3009 RMK A01 T01310129  RH  099%=      5-min Rain = 0
KQU1 231357Z 00006KT 13/13 A3009 RMK A01 T01300128  RH  099%=      5-min Rain = 0
KQU1 231358Z 35006KT 13/13 A301 RMK A01 T01300128  RH  099%=      5-min Rain = 0
KQU1 231359Z 36003KT 13/13 A301 RMK A01 T01300128  RH  098%=      5-min Rain = 0
KQU1 231400Z 00001KT 13/13 A301 RMK A01 T01300128  RH  099%=      5-min Rain = 0
KQU1 231401Z 02002KT 13/13 A301 RMK A01 T01300128  RH  099%=      5-min Rain = 0
KQU1 231402Z 01004KT 13/13 A301 RMK A01 T01310128  RH  099%=      5-min Rain = 0
KQU1 231403Z 00004KT 13/13 A301 RMK A01 T01300128  RH  098%=      5-min Rain = 0
KQU1 231404Z 36005KT 13/13 A301 RMK A01 T01300128  RH  098%=      5-min Rain = 0
KQU1 231405Z 02004KT 13/13 A301 RMK A01 T01300127  RH  098%=      5-min Rain = 0
KQU1 231406Z 03004KT 13/13 A301 RMK A01 T01300128  RH  098%=      5-min Rain = 0
KQU1 231407Z 01004KT 13/13 A301 RMK A01 T01300128  RH  099%=      5-min Rain = 0
KQU1 231408Z 00003KT 13/13 A3009 RMK A01 T01300128  RH  099%=      5-min Rain = 0
KQU1 231409Z 01006KT 13/13 A3009 RMK A01 T01300128  RH  098%=      5-min Rain = 0
KQU1 231410Z 02005KT 13/13 A3009 RMK A01 T01300128  RH  098%=      5-min Rain = 0
KQU1 231411Z 00005KT 13/13 A301 RMK A01 T01300128  RH  098%=      5-min Rain = 0
KQU1 231412Z 02006KT 13/13 A301 RMK A01 T01300128  RH  098%=      5-min Rain = 0
KQU1 231413Z 01004KT 13/13 A301 RMK A01 T01300128  RH  098%=      5-min Rain = 0
KQU1 231414Z 01006KT 13/13 A301 RMK A01 T01300127  RH  098%=      5-min Rain = 0
KQU1 231415Z 00005KT 13/13 A301 RMK A01 T01300127  RH  098%=      5-min Rain = 0
KQU1 231416Z 02005KT 13/13 A301 RMK A01 T01300127  RH  098%=      5-min Rain = 0
KQU1 231417Z 02005KT 13/13 A301 RMK A01 T01300127  RH  098%=      5-min Rain = 0
KQU1 231418Z 02002KT 13/13 A301 RMK A01 T01300127  RH  098%=      5-min Rain = 0
KQU1 231419Z 35003KT 13/13 A301 RMK A01 T01300128  RH  098%=      5-min Rain = 0
KQU1 231420Z 01004KT 13/13 A301 RMK A01 T01300128  RH  098%=      5-min Rain = 0
KQU1 231421Z 02003KT 13/13 A301 RMK A01 T01300128  RH  098%=      5-min Rain = 0
KQU1 231422Z 35003KT 13/13 A3009 RMK A01 T01300128  RH  098%=      5-min Rain = 0
KQU1 231423Z 01004KT 13/13 A3009 RMK A01 T01300128  RH  098%=      5-min Rain = 0
KQU1 231424Z 01006KT 13/13 A3009 RMK A01 T01300127  RH  098%=      5-min Rain = 0
KQU1 231425Z 03004KT 13/13 A3009 RMK A01 T01300128  RH  098%=      5-min Rain = 0
KQU1 231426Z 02005KT 13/13 A3009 RMK A01 T01300127  RH  098%=      5-min Rain = 0
KQU1 231427Z 02007KT 13/13 A3009 RMK A01 T01300127  RH  098%=      5-min Rain = 0
KQU1 231428Z 02006KT 13/13 A3009 RMK A01 T01300127  RH  098%=      5-min Rain = 0
KQU1 231429Z 02005KT 13/13 A3009 RMK A01 T01300127  RH  098%=      5-min Rain = 0
KQU1 231430Z 02003KT 13/13 A3009 RMK A01 T01300127  RH  098%=      5-min Rain = 0
KQU1 231431Z 01003KT 13/13 A3009 RMK A01 T01300127  RH  098%=      5-min Rain = 0
KQU1 231432Z 02007KT 13/13 A3009 RMK A01 T01300127  RH  098%=      5-min Rain = 0
KQU1 231433Z 03008KT 13/13 A3009 RMK A01 T01300127  RH  098%=      5-min Rain = 0
KQU1 231434Z 02010KT 13/13 A3009 RMK A01 T01300127  RH  098%=      5-min Rain = 0
KQU1 231435Z 03008KT 13/13 A3009 RMK A01 T01300127  RH  098%=      5-min Rain = 0
KQU1 231436Z 03007KT 13/13 A3009 RMK A01 T01300127  RH  098%=      5-min Rain = 0
KQU1 231437Z 03011KT 13/13 A3009 RMK A01 T01290126  RH  098%=      5-min Rain = 0
KQU1 231438Z 03010KT 13/13 A3009 RMK A01 T01290126  RH  098%=      5-min Rain = 0.01
KQU1 231439Z 03011KT 13/13 A3009 RMK A01 T01290126  RH  098%=      5-min Rain = 0
KQU1 231440Z 03010KT 13/13 A3009 RMK A01 T01280125  RH  098%=      5-min Rain = 0
KQU1 231441Z 02008G14KT 13/13 A3009 RMK A01 T01280125  RH  098%=      5-min Rain = 0
KQU1 231442Z 03008KT 13/13 A3009 RMK A01 T01280125  RH  098%=      5-min Rain = 0
KQU1 231443Z 02011G18KT 13/13 A3009 RMK A01 T01280125  RH  098%=      5-min Rain = 0
KQU1 231444Z 03012KT 13/12 A3009 RMK A01 T01280124  RH  098%=      5-min Rain = 0.01
KQU1 231445Z 02011G16KT 13/12 A3009 RMK A01 T01270124  RH  098%=      5-min Rain = 0
KQU1 231446Z 03011KT 13/12 A3009 RMK A01 T01270124  RH  098%=      5-min Rain = 0
KQU1 231447Z 03009KT 13/12 A3009 RMK A01 T01270124  RH  098%=      5-min Rain = 0
KQU1 231448Z 02009G14KT 13/13 A3009 RMK A01 T01270125  RH  098%=      5-min Rain = 0
KQU1 231449Z 03010G15KT 13/12 A3009 RMK A01 T01270124  RH  098%=      5-min Rain = 0
KQU1 231450Z 03008G13KT 13/12 A3009 RMK A01 T01270124  RH  098%=      5-min Rain = 0
KQU1 231451Z 03012KT 13/12 A3009 RMK A01 T01270124  RH  098%=      5-min Rain = 0
KQU1 231452Z 03010KT 13/12 A3009 RMK A01 T01270124  RH  098%=      5-min Rain = 0
KQU1 231453Z 03008KT 13/12 A3009 RMK A01 T01270124  RH  098%=      5-min Rain = 0
KQU1 231454Z 03010KT 13/12 A3009 RMK A01 T01270124  RH  098%=      5-min Rain = 0.01
KQU1 231455Z 03011KT 13/12 A3009 RMK A01 T01270124  RH  098%=      5-min Rain = 0
KQU1 231456Z 04011KT 13/12 A3009 RMK A01 T01270124  RH  098%=      5-min Rain = 0
KQU1 231457Z 04011KT 13/12 A3009 RMK A01 T01260124  RH  098%=      5-min Rain = 0
KQU1 231458Z 03012KT 13/12 A3009 RMK A01 T01260123  RH  098%=      5-min Rain = 0
KQU1 231459Z 03010KT 13/12 A3009 RMK A01 T01260124  RH  098%=      5-min Rain = 0
KQU1 231500Z 03010KT 13/12 A3009 RMK A01 T01260123  RH  098%=      5-min Rain = 0
KQU1 231501Z 03012KT 13/12 A3009 RMK A01 T01260123  RH  098%=      5-min Rain = 0
KQU1 231502Z 03012KT 13/12 A3009 RMK A01 T01260123  RH  098%=      5-min Rain = 0
KQU1 231503Z 03010KT 13/12 A3009 RMK A01 T01250123  RH  098%=      5-min Rain = 0
KQU1 231504Z 03012KT 13/12 A3009 RMK A01 T01250123  RH  098%=      5-min Rain = 0
KQU1 231505Z 02010KT 13/12 A3009 RMK A01 T01250122  RH  098%=      5-min Rain = 0.01
KQU1 231506Z 03011KT 13/12 A3009 RMK A01 T01250123  RH  098%=      5-min Rain = 0
KQU1 231507Z 02009KT 13/12 A3009 RMK A01 T01250122  RH  098%=      5-min Rain = 0
KQU1 231508Z 03011KT 13/12 A3009 RMK A01 T01250122  RH  098%=      5-min Rain = 0
KQU1 231509Z 02012KT 13/12 A3009 RMK A01 T01250122  RH  098%=      5-min Rain = 0
KQU1 231510Z 02009G14KT 13/12 A3008 RMK A01 T01250122  RH  098%=      5-min Rain = 0
KQU1 231511Z 03009G15KT 13/12 A3008 RMK A01 T01250122  RH  098%=      5-min Rain = 0
KQU1 231512Z 03011G18KT 13/12 A3008 RMK A01 T01250122  RH  098%=      5-min Rain = 0
KQU1 231513Z 03013G18KT 13/12 A3008 RMK A01 T01250122  RH  098%=      5-min Rain = 0
KQU1 231514Z 02011KT 13/12 A3008 RMK A01 T01250122  RH  098%=      5-min Rain = 0
KQU1 231515Z 03010KT 13/12 A3008 RMK A01 T01250122  RH  098%=      5-min Rain = 0
KQU1 231516Z 02009G14KT 13/12 A3008 RMK A01 T01250122  RH  098%=      5-min Rain = 0
KQU1 231517Z 01006KT 13/12 A3009 RMK A01 T01250122  RH  098%=      5-min Rain = 0
KQU1 231518Z 02008KT 13/12 A3009 RMK A01 T01250122  RH  098%=      5-min Rain = 0
KQU1 231519Z 01007G13KT 13/12 A3009 RMK A01 T01250122  RH  098%=      5-min Rain = 0
KQU1 231520Z 02005G10KT 13/12 A3009 RMK A01 T01250122  RH  098%=      5-min Rain = 0
KQU1 231521Z 00006KT 13/12 A3009 RMK A01 T01250123  RH  098%=      5-min Rain = 0
KQU1 231522Z 36011G18KT 13/12 A3009 RMK A01 T01250122  RH  098%=      5-min Rain = 0
KQU1 231523Z 00010KT 12/12 A3009 RMK A01 T01240120  RH  098%=      5-min Rain = 0
KQU1 231524Z 36008KT 12/12 A3009 RMK A01 T01230119  RH  098%=      5-min Rain = 0
KQU1 231525Z 01006G12KT 12/12 A3009 RMK A01 T01220119  RH  098%=      5-min Rain = 0
KQU1 231526Z 01007KT 12/12 A3009 RMK A01 T01220119  RH  098%=      5-min Rain = 0
KQU1 231527Z 02008G13KT 12/12 A3009 RMK A01 T01220120  RH  098%=      5-min Rain = 0
KQU1 231528Z 02010G15KT 12/12 A3009 RMK A01 T01220119  RH  098%=      5-min Rain = 0
KQU1 231529Z 02009G17KT 12/12 A3009 RMK A01 T01220119  RH  098%=      5-min Rain = 0
KQU1 231530Z 02011G17KT 12/12 A3009 RMK A01 T01210118  RH  098%=      5-min Rain = 0
KQU1 231531Z 01007KT 12/12 A3009 RMK A01 T01210119  RH  098%=      5-min Rain = 0
KQU1 231532Z 02007G12KT 12/12 A3009 RMK A01 T01210119  RH  098%=      5-min Rain = 0
KQU1 231533Z 02009G15KT 12/12 A3009 RMK A01 T01210119  RH  098%=      5-min Rain = 0
KQU1 231534Z 02010G15KT 12/12 A3009 RMK A01 T01210118  RH  098%=      5-min Rain = 0
KQU1 231535Z 01009G14KT 12/12 A301 RMK A01 T01200117  RH  098%=      5-min Rain = 0
KQU1 231536Z 01005KT 12/12 A301 RMK A01 T01200118  RH  098%=      5-min Rain = 0
KQU1 231537Z 02006G11KT 12/12 A301 RMK A01 T01210118  RH  098%=      5-min Rain = 0
KQU1 231538Z 01005KT 12/12 A301 RMK A01 T01210118  RH  098%=      5-min Rain = 0
KQU1 231539Z 02009G16KT 12/12 A301 RMK A01 T01210118  RH  098%=      5-min Rain = 0
KQU1 231540Z 01007KT 12/12 A301 RMK A01 T01200117  RH  098%=      5-min Rain = 0
KQU1 231541Z 02008KT 12/12 A301 RMK A01 T01200117  RH  098%=      5-min Rain = 0
KQU1 231542Z 00006KT 12/12 A301 RMK A01 T01200117  RH  098%=      5-min Rain = 0
KQU1 231543Z 02004KT 12/12 A301 RMK A01 T01200117  RH  098%=      5-min Rain = 0
KQU1 231544Z 01006KT 12/12 A301 RMK A01 T01200117  RH  098%=      5-min Rain = 0
KQU1 231545Z 01003KT 12/12 A301 RMK A01 T01200117  RH  098%=      5-min Rain = 0
KQU1 231546Z 02006KT 12/12 A301 RMK A01 T01200117  RH  098%=      5-min Rain = 0
KQU1 231547Z 02009KT 12/12 A301 RMK A01 T01190117  RH  098%=      5-min Rain = 0
KQU1 231548Z 02011G16KT 12/12 A301 RMK A01 T01190116  RH  098%=      5-min Rain = 0
KQU1 231549Z 03012KT 12/11 A3011 RMK A01 T01170114  RH  098%=      5-min Rain = 0
KQU1 231550Z 03012KT 12/11 A3011 RMK A01 T01170113  RH  098%=      5-min Rain = 0
KQU1 231551Z 02009KT 12/11 A3011 RMK A01 T01160113  RH  098%=      5-min Rain = 0
KQU1 231552Z 02010KT 12/11 A3011 RMK A01 T01160113  RH  098%=      5-min Rain = 0
KQU1 231553Z 02009G18KT 12/11 A3011 RMK A01 T01160112  RH  098%=      5-min Rain = 0
KQU1 231554Z 36008KT 12/11 A3011 RMK A01 T01160112  RH  098%=      5-min Rain = 0
KQU1 231555Z 02010G17KT 12/11 A3011 RMK A01 T01150112  RH  098%=      5-min Rain = 0
KQU1 231556Z 02014KT 12/11 A3011 RMK A01 T01150111  RH  098%=      5-min Rain = 0
KQU1 231557Z 02009G14KT 11/11 A3011 RMK A01 T01140111  RH  098%=      5-min Rain = 0
KQU1 231558Z 02013KT 11/11 A3011 RMK A01 T01140110  RH  098%=      5-min Rain = 0
KQU1 231559Z 03011KT 11/11 A3011 RMK A01 T01140110  RH  098%=      5-min Rain = 0
KQU1 231600Z 03011KT 11/11 A3011 RMK A01 T01140110  RH  098%=      5-min Rain = 0
KQU1 231601Z 01011KT 11/11 A3011 RMK A01 T01140110  RH  098%=      5-min Rain = 0
KQU1 231602Z 03013G18KT 11/11 A3011 RMK A01 T01140110  RH  098%=      5-min Rain = 0
KQU1 231603Z 03012G17KT 11/11 A3011 RMK A01 T01140110  RH  098%=      5-min Rain = 0
KQU1 231604Z 02009G17KT 11/11 A3012 RMK A01 T01140110  RH  098%=      5-min Rain = 0
KQU1 231605Z 03010KT 11/11 A3012 RMK A01 T01140111  RH  098%=      5-min Rain = 0
KQU1 231606Z 03008KT 11/11 A3012 RMK A01 T01140111  RH  098%=      5-min Rain = 0
KQU1 231607Z 03009KT 11/11 A3012 RMK A01 T01140111  RH  098%=      5-min Rain = 0
KQU1 231608Z 03007G12KT 11/11 A3012 RMK A01 T01140111  RH  098%=      5-min Rain = 0
KQU1 231609Z 03007KT 12/11 A3012 RMK A01 T01150111  RH  098%=      5-min Rain = 0
KQU1 231610Z 03007KT 12/11 A3012 RMK A01 T01150111  RH  098%=      5-min Rain = 0
KQU1 231611Z 03007KT 12/11 A3012 RMK A01 T01150112  RH  098%=      5-min Rain = 0
KQU1 231612Z 03007KT 12/11 A3012 RMK A01 T01150111  RH  098%=      5-min Rain = 0
KQU1 231613Z 03009KT 12/11 A3012 RMK A01 T01150111  RH  098%=      5-min Rain = 0
KQU1 231614Z 03008KT 11/11 A3012 RMK A01 T01140111  RH  098%=      5-min Rain = 0
KQU1 231615Z 02008KT 12/11 A3012 RMK A01 T01150111  RH  098%=      5-min Rain = 0
KQU1 231616Z 02008KT 12/11 A3012 RMK A01 T01150111  RH  098%=      5-min Rain = 0
KQU1 231617Z 03006KT 12/11 A3012 RMK A01 T01150112  RH  098%=      5-min Rain = 0
KQU1 231618Z 03008KT 12/11 A3012 RMK A01 T01150112  RH  098%=      5-min Rain = 0
KQU1 231619Z 02007KT 12/11 A3012 RMK A01 T01150112  RH  098%=      5-min Rain = 0
KQU1 231620Z 02007KT 12/11 A3012 RMK A01 T01150112  RH  098%=      5-min Rain = 0
KQU1 231621Z 03004G9KT 12/11 A3012 RMK A01 T01150112  RH  098%=      5-min Rain = 0
KQU1 231622Z 01006KT 12/11 A3012 RMK A01 T01160113  RH  098%=      5-min Rain = 0
KQU1 231623Z 04005KT 12/11 A3012 RMK A01 T01160113  RH  098%=      5-min Rain = 0
KQU1 231624Z 01004G9KT 12/11 A3012 RMK A01 T01160113  RH  098%=      5-min Rain = 0
KQU1 231625Z 01004KT 12/11 A3012 RMK A01 T01160113  RH  098%=      5-min Rain = 0
KQU1 231626Z 02007KT 12/11 A3012 RMK A01 T01160113  RH  098%=      5-min Rain = 0
KQU1 231627Z 03007KT 12/11 A3012 RMK A01 T01160113  RH  098%=      5-min Rain = 0
KQU1 231628Z 02005KT 12/11 A3012 RMK A01 T01160113  RH  098%=      5-min Rain = 0.01
KQU1 231629Z 03006KT 12/11 A3012 RMK A01 T01160113  RH  098%=      5-min Rain = 0
KQU1 231630Z 02005KT 12/11 A3012 RMK A01 T01160114  RH  098%=      5-min Rain = 0
KQU1 231631Z 02004KT 12/11 A3012 RMK A01 T01170114  RH  098%=      5-min Rain = 0
KQU1 231632Z 36003G8KT 12/12 A3012 RMK A01 T01170115  RH  098%=      5-min Rain = 0
KQU1 231633Z 02004KT 12/12 A3012 RMK A01 T01170115  RH  098%=      5-min Rain = 0.01
KQU1 231634Z 01004G9KT 12/11 A3012 RMK A01 T01170114  RH  098%=      5-min Rain = 0
KQU1 231635Z 01005G11KT 12/11 A3012 RMK A01 T01170114  RH  098%=      5-min Rain = 0
KQU1 231636Z 01007KT 12/11 A3012 RMK A01 T01170114  RH  098%=      5-min Rain = 0
KQU1 231637Z 00006G11KT 12/11 A3012 RMK A01 T01160113  RH  098%=      5-min Rain = 0
KQU1 231638Z 36010G16KT 12/11 A3012 RMK A01 T01160112  RH  098%=      5-min Rain = 0
KQU1 231639Z 00007KT 12/11 A3012 RMK A01 T01150112  RH  098%=      5-min Rain = 0.01
KQU1 231640Z 36007G13KT 12/11 A3012 RMK A01 T01150112  RH  098%=      5-min Rain = 0
KQU1 231641Z 35009G14KT 11/11 A3012 RMK A01 T01140111  RH  098%=      5-min Rain = 0
KQU1 231642Z 02008KT 11/11 A3012 RMK A01 T01140110  RH  098%=      5-min Rain = 0
KQU1 231643Z 00007KT 11/11 A3012 RMK A01 T01140111  RH  098%=      5-min Rain = 0
KQU1 231644Z 02006KT 11/11 A3012 RMK A01 T01130110  RH  098%=      5-min Rain = 0
KQU1 231645Z 36006G11KT 11/11 A3012 RMK A01 T01130110  RH  098%=      5-min Rain = 0
KQU1 231646Z 36010G16KT 11/11 A3012 RMK A01 T01130110  RH  098%=      5-min Rain = 0
KQU1 231647Z 01004G9KT 11/11 A3012 RMK A01 T01130110  RH  098%=      5-min Rain = 0
KQU1 231648Z 00007G12KT 11/11 A3012 RMK A01 T01130110  RH  098%=      5-min Rain = 0.01
KQU1 231649Z 36007KT 11/11 A3012 RMK A01 T01130110  RH  098%=      5-min Rain = 0
KQU1 231650Z 01007G12KT 11/11 A3012 RMK A01 T01130110  RH  098%=      5-min Rain = 0
KQU1 231651Z 01007G12KT 11/11 A3012 RMK A01 T01130110  RH  098%=      5-min Rain = 0
KQU1 231652Z 00006KT 11/11 A3012 RMK A01 T01130110  RH  098%=      5-min Rain = 0
KQU1 231653Z 36010G15KT 11/11 A3012 RMK A01 T01120110  RH  098%=      5-min Rain = 0
KQU1 231654Z 01009G14KT 11/11 A3012 RMK A01 T01130110  RH  098%=      5-min Rain = 0.01
KQU1 231655Z 01007G14KT 11/11 A3012 RMK A01 T01120110  RH  098%=      5-min Rain = 0
KQU1 231656Z 36007G12KT 11/11 A3012 RMK A01 T01130110  RH  098%=      5-min Rain = 0
KQU1 231657Z 36007KT 11/11 A3011 RMK A01 T01130111  RH  099%=      5-min Rain = 0
KQU1 231658Z 00006G11KT 11/11 A3011 RMK A01 T01140111  RH  099%=      5-min Rain = 0
KQU1 231659Z 35006KT 11/11 A3011 RMK A01 T01140112  RH  099%=      5-min Rain = 0
KQU1 231700Z 00007G12KT 11/11 A3011 RMK A01 T01140112  RH  099%=      5-min Rain = 0
KQU1 231701Z 00006KT 12/11 A3011 RMK A01 T01150113  RH  099%=      5-min Rain = 0.01
KQU1 231702Z 01010G15KT 11/11 A3011 RMK A01 T01140112  RH  099%=      5-min Rain = 0
KQU1 231703Z 02010G16KT 11/11 A3011 RMK A01 T01130110  RH  098%=      5-min Rain = 0
KQU1 231704Z 02009KT 11/11 A3011 RMK A01 T01130110  RH  098%=      5-min Rain = 0
KQU1 231705Z 36006KT 11/11 A3011 RMK A01 T01130111  RH  098%=      5-min Rain = 0
KQU1 231706Z 01007G16KT 11/11 A3011 RMK A01 T01130111  RH  099%=      5-min Rain = 0
KQU1 231707Z 00009KT 11/11 A3011 RMK A01 T01130110  RH  098%=      5-min Rain = 0
KQU1 231708Z 01006G12KT 11/11 A3011 RMK A01 T01140111  RH  098%=      5-min Rain = 0
KQU1 231709Z 35010G16KT 11/11 A3011 RMK A01 T01140112  RH  099%=      5-min Rain = 0
KQU1 231710Z 35009G16KT 11/11 A3011 RMK A01 T01130110  RH  098%=      5-min Rain = 0
KQU1 231711Z 00009KT 11/11 A3011 RMK A01 T01130111  RH  098%=      5-min Rain = 0
KQU1 231712Z 35006G12KT 11/11 A3011 RMK A01 T01130111  RH  099%=      5-min Rain = 0
KQU1 231713Z 36007G12KT 11/11 A3011 RMK A01 T01130111  RH  098%=      5-min Rain = 0
KQU1 231714Z 35009KT 11/11 A3011 RMK A01 T01130111  RH  098%=      5-min Rain = 0
KQU1 231715Z 00012KT 11/11 A3011 RMK A01 T01130110  RH  098%=      5-min Rain = 0.01
KQU1 231716Z 36009G15KT 11/11 A3011 RMK A01 T01130110  RH  098%=      5-min Rain = 0
KQU1 231717Z 35012G17KT 11/11 A3011 RMK A01 T01130110  RH  098%=      5-min Rain = 0
KQU1 231718Z 00010G15KT 11/11 A3011 RMK A01 T01130110  RH  098%=      5-min Rain = 0
KQU1 231719Z 01009G15KT 11/11 A3011 RMK A01 T01120110  RH  098%=      5-min Rain = 0
KQU1 231720Z 36008G13KT 11/11 A3011 RMK A01 T01120110  RH  098%=      5-min Rain = 0
KQU1 231721Z 00010G15KT 11/11 A3011 RMK A01 T01130110  RH  098%=      5-min Rain = 0
KQU1 231722Z 36009G15KT 11/11 A3011 RMK A01 T01130110  RH  098%=      5-min Rain = 0
KQU1 231723Z 36011G16KT 11/11 A301 RMK A01 T01130111  RH  098%=      5-min Rain = 0
KQU1 231724Z 35007G14KT 11/11 A301 RMK A01 T01130111  RH  099%=      5-min Rain = 0
KQU1 231725Z 36012KT 11/11 A301 RMK A01 T01140111  RH  098%=      5-min Rain = 0
KQU1 231726Z 00009KT 11/11 A301 RMK A01 T01140111  RH  098%=      5-min Rain = 0
KQU1 231727Z 35006KT 11/11 A301 RMK A01 T01140112  RH  099%=      5-min Rain = 0
KQU1 231728Z 00012G17KT 12/11 A301 RMK A01 T01150112  RH  098%=      5-min Rain = 0
KQU1 231729Z 00006G11KT 11/11 A301 RMK A01 T01140112  RH  098%=      5-min Rain = 0
KQU1 231730Z 00009G14KT 11/11 A301 RMK A01 T01140112  RH  098%=      5-min Rain = 0
KQU1 231731Z 01010G15KT 11/11 A301 RMK A01 T01140111  RH  098%=      5-min Rain = 0
KQU1 231732Z 35012G18KT 11/11 A301 RMK A01 T01140112  RH  098%=      5-min Rain = 0
KQU1 231733Z 01012G18KT 11/11 A301 RMK A01 T01140111  RH  098%=      5-min Rain = 0
KQU1 231734Z 00009G16KT 11/11 A301 RMK A01 T01140111  RH  098%=      5-min Rain = 0
KQU1 231735Z 01009G14KT 11/11 A301 RMK A01 T01140112  RH  098%=      5-min Rain = 0
KQU1 231736Z 00009G15KT 12/11 A3009 RMK A01 T01150112  RH  098%=      5-min Rain = 0
KQU1 231737Z 36013G20KT 11/11 A301 RMK A01 T01140112  RH  098%=      5-min Rain = 0
KQU1 231738Z 01010G16KT 11/11 A3009 RMK A01 T01140111  RH  098%=      5-min Rain = 0
KQU1 231739Z 00010KT 11/11 A3009 RMK A01 T01130110  RH  098%=      5-min Rain = 0
KQU1 231740Z 01009G16KT 11/11 A3009 RMK A01 T01140110  RH  098%=      5-min Rain = 0
KQU1 231741Z 36012KT 11/11 A3009 RMK A01 T01130110  RH  098%=      5-min Rain = 0
KQU1 231742Z 01010KT 11/11 A3009 RMK A01 T01130110  RH  098%=      5-min Rain = 0
KQU1 231743Z 36010KT 11/11 A3009 RMK A01 T01130110  RH  098%=      5-min Rain = 0
KQU1 231744Z 36007G12KT 11/11 A3009 RMK A01 T01130110  RH  098%=      5-min Rain = 0
KQU1 231745Z 35006KT 11/11 A3009 RMK A01 T01140111  RH  098%=      5-min Rain = 0
KQU1 231746Z 01006G11KT 12/11 A3009 RMK A01 T01150112  RH  098%=      5-min Rain = 0
KQU1 231747Z 35008KT 12/11 A3009 RMK A01 T01150112  RH  098%=      5-min Rain = 0
KQU1 231748Z 36009G15KT 12/11 A3009 RMK A01 T01150112  RH  098%=      5-min Rain = 0
KQU1 231749Z 01007G12KT 12/11 A3009 RMK A01 T01150111  RH  098%=      5-min Rain = 0
KQU1 231750Z 01008KT 12/11 A3009 RMK A01 T01150112  RH  098%=      5-min Rain = 0
KQU1 231751Z 35009G15KT 11/11 A3009 RMK A01 T01140111  RH  098%=      5-min Rain = 0
KQU1 231752Z 36011G17KT 11/11 A3009 RMK A01 T01140110  RH  098%=      5-min Rain = 0
KQU1 231753Z 36008G13KT 11/11 A3009 RMK A01 T01140110  RH  098%=      5-min Rain = 0
KQU1 231754Z 36004G9KT 11/11 A3009 RMK A01 T01140110  RH  098%=      5-min Rain = 0
KQU1 231755Z 01009KT 11/11 A3009 RMK A01 T01140111  RH  098%=      5-min Rain = 0
KQU1 231756Z 36010G17KT 11/11 A3009 RMK A01 T01140110  RH  098%=      5-min Rain = 0
KQU1 231757Z 00009G14KT 11/11 A3009 RMK A01 T01130110  RH  098%=      5-min Rain = 0
KQU1 231758Z 35011G18KT 11/11 A3008 RMK A01 T01130109  RH  098%=      5-min Rain = 0
KQU1 231759Z 36012KT 11/11 A3008 RMK A01 T01120107  RH  097%=      5-min Rain = 0
KQU1 231800Z 36011G17KT 11/11 A3008 RMK A01 T01110107  RH  097%=      5-min Rain = 0
KQU1 231801Z 01007G14KT 11/11 A3008 RMK A01 T01110107  RH  097%=      5-min Rain = 0
KQU1 231802Z 35009G14KT 11/11 A3009 RMK A01 T01110107  RH  097%=      5-min Rain = 0
KQU1 231803Z 00010G16KT 11/11 A3009 RMK A01 T01110107  RH  097%=      5-min Rain = 0
KQU1 231804Z 35007KT 11/11 A3009 RMK A01 T01120108  RH  098%=      5-min Rain = 0
KQU1 231805Z 35012G17KT 11/11 A3009 RMK A01 T01130109  RH  097%=      5-min Rain = 0
KQU1 231806Z 35007G17KT 11/11 A3009 RMK A01 T01130108  RH  097%=      5-min Rain = 0
KQU1 231807Z 36009G17KT 11/11 A3009 RMK A01 T01130109  RH  097%=      5-min Rain = 0
KQU1 231808Z 35009G15KT 11/11 A3009 RMK A01 T01130108  RH  097%=      5-min Rain = 0
KQU1 231809Z 35011G17KT 11/11 A3009 RMK A01 T01130107  RH  096%=      5-min Rain = 0
KQU1 231810Z 00011G17KT 11/11 A3009 RMK A01 T01130107  RH  096%=      5-min Rain = 0
KQU1 231811Z 36013G19KT 11/11 A3008 RMK A01 T01130106  RH  095%=      5-min Rain = 0
KQU1 231812Z 01010G18KT 11/11 A3009 RMK A01 T01130106  RH  095%=      5-min Rain = 0
KQU1 231813Z 00009G16KT 11/11 A3009 RMK A01 T01130106  RH  095%=      5-min Rain = 0
KQU1 231814Z 00009G14KT 12/11 A3009 RMK A01 T01150108  RH  095%=      5-min Rain = 0
KQU1 231815Z 36012KT 12/11 A3009 RMK A01 T01150106  RH  094%=      5-min Rain = 0
KQU1 231816Z 00011G19KT 12/11 A3008 RMK A01 T01150105  RH  094%=      5-min Rain = 0
KQU1 231817Z 00011G16KT 12/11 A3008 RMK A01 T01150105  RH  094%=      5-min Rain = 0
KQU1 231818Z 01008G14KT 12/11 A3008 RMK A01 T01150105  RH  093%=      5-min Rain = 0
KQU1 231819Z 00013KT 12/10 A3008 RMK A01 T01160104  RH  093%=      5-min Rain = 0
KQU1 231820Z 00011KT 12/10 A3008 RMK A01 T01160104  RH  092%=      5-min Rain = 0
KQU1 231821Z 01009KT 12/10 A3008 RMK A01 T01160104  RH  092%=      5-min Rain = 0
KQU1 231822Z 00008G13KT 12/11 A3008 RMK A01 T01160105  RH  092%=      5-min Rain = 0
KQU1 231823Z 02006G11KT 12/11 A3008 RMK A01 T01170105  RH  093%=      5-min Rain = 0
KQU1 231824Z 01007G15KT 12/11 A3008 RMK A01 T01180106  RH  093%=      5-min Rain = 0
KQU1 231825Z 36008G13KT 12/11 A3008 RMK A01 T01180106  RH  092%=      5-min Rain = 0
KQU1 231826Z 36009G16KT 12/11 A3008 RMK A01 T01180105  RH  092%=      5-min Rain = 0
KQU1 231827Z 00008G13KT 12/11 A3008 RMK A01 T01180105  RH  092%=      5-min Rain = 0
KQU1 231828Z 36011G16KT 12/10 A3008 RMK A01 T01180104  RH  091%=      5-min Rain = 0
KQU1 231829Z 36010G17KT 12/10 A3008 RMK A01 T01180104  RH  091%=      5-min Rain = 0
KQU1 231830Z 01010KT 12/10 A3008 RMK A01 T01180103  RH  091%=      5-min Rain = 0
KQU1 231831Z 35007G12KT 12/11 A3008 RMK A01 T01190105  RH  091%=      5-min Rain = 0
KQU1 231832Z 35010G15KT 12/10 A3008 RMK A01 T01190104  RH  091%=      5-min Rain = 0
KQU1 231833Z 36009KT 12/11 A3008 RMK A01 T01200105  RH  091%=      5-min Rain = 0
KQU1 231834Z 01009G16KT 12/11 A3008 RMK A01 T01200106  RH  091%=      5-min Rain = 0
KQU1 231835Z 35011KT 12/10 A3008 RMK A01 T01200104  RH  090%=      5-min Rain = 0
KQU1 231836Z 36006G12KT 12/11 A3008 RMK A01 T01210106  RH  091%=      5-min Rain = 0
KQU1 231837Z 35006G12KT 12/11 A3008 RMK A01 T01220109  RH  092%=      5-min Rain = 0
KQU1 231838Z 35008G13KT 12/11 A3008 RMK A01 T01220107  RH  090%=      5-min Rain = 0
KQU1 231839Z 02008G15KT 12/11 A3008 RMK A01 T01220106  RH  090%=      5-min Rain = 0
KQU1 231840Z 36005KT 12/11 A3008 RMK A01 T01230108  RH  090%=      5-min Rain = 0
KQU1 231841Z 01005G10KT 12/11 A3008 RMK A01 T01240108  RH  090%=      5-min Rain = 0
KQU1 231842Z 01006KT 12/11 A3008 RMK A01 T01240109  RH  090%=      5-min Rain = 0
KQU1 231843Z 00003KT 13/11 A3008 RMK A01 T01250109  RH  090%=      5-min Rain = 0
KQU1 231844Z 35007KT 13/11 A3008 RMK A01 T01250107  RH  089%=      5-min Rain = 0
KQU1 231845Z 01007KT 13/11 A3008 RMK A01 T01250105  RH  088%=      5-min Rain = 0
KQU1 231846Z 36007KT 13/11 A3008 RMK A01 T01250107  RH  088%=      5-min Rain = 0
KQU1 231847Z 00007G15KT 13/11 A3008 RMK A01 T01260108  RH  089%=      5-min Rain = 0
KQU1 231848Z 36008KT 13/11 A3008 RMK A01 T01260106  RH  087%=      5-min Rain = 0
KQU1 231849Z 34006KT 13/11 A3008 RMK A01 T01260110  RH  089%=      5-min Rain = 0
KQU1 231850Z 35008KT 13/11 A3008 RMK A01 T01270108  RH  088%=      5-min Rain = 0
KQU1 231851Z 35007KT 13/11 A3008 RMK A01 T01270108  RH  088%=      5-min Rain = 0
KQU1 231852Z 35008KT 13/11 A3008 RMK A01 T01280109  RH  088%=      5-min Rain = 0
KQU1 231853Z 36010G15KT 13/11 A3008 RMK A01 T01280107  RH  087%=      5-min Rain = 0
KQU1 231854Z 36010G16KT 13/10 A3008 RMK A01 T01280103  RH  085%=      5-min Rain = 0
KQU1 231855Z 35010G15KT 13/10 A3008 RMK A01 T01270104  RH  086%=      5-min Rain = 0
KQU1 231856Z 00011KT 13/10 A3008 RMK A01 T01270102  RH  085%=      5-min Rain = 0
KQU1 231857Z 01006G11KT 13/10 A3008 RMK A01 T01270102  RH  085%=      5-min Rain = 0
KQU1 231858Z 01004KT 13/11 A3008 RMK A01 T01280105  RH  086%=      5-min Rain = 0
KQU1 231859Z 35008G13KT 13/10 A3008 RMK A01 T01280104  RH  085%=      5-min Rain = 0
KQU1 231900Z 01009KT 13/10 A3008 RMK A01 T01280101  RH  084%=      5-min Rain = 0
KQU1 231901Z 36010KT 13/10 A3008 RMK A01 T01280102  RH  084%=      5-min Rain = 0
KQU1 231902Z 00008G14KT 13/10 A3008 RMK A01 T01290103  RH  084%=      5-min Rain = 0
KQU1 231903Z 00009G15KT 13/10 A3008 RMK A01 T01290101  RH  083%=      5-min Rain = 0
KQU1 231904Z 36010KT 13/10 A3008 RMK A01 T01290100  RH  083%=      5-min Rain = 0
KQU1 231905Z 35007KT 13/10 A3008 RMK A01 T01290104  RH  084%=      5-min Rain = 0
KQU1 231906Z 35006G12KT 13/11 A3008 RMK A01 T01300105  RH  085%=      5-min Rain = 0
KQU1 231907Z 36010KT 13/10 A3008 RMK A01 T01310103  RH  083%=      5-min Rain = 0
KQU1 231908Z 00008KT 13/10 A3008 RMK A01 T01310102  RH  083%=      5-min Rain = 0
KQU1 231909Z 35007KT 13/11 A3008 RMK A01 T01320105  RH  084%=      5-min Rain = 0
KQU1 231910Z 01003KT 13/11 A3008 RMK A01 T01330106  RH  084%=      5-min Rain = 0
KQU1 231911Z 36005KT 13/11 A3008 RMK A01 T01330107  RH  084%=      5-min Rain = 0
KQU1 231912Z 35007G14KT 13/11 A3008 RMK A01 T01340106  RH  083%=      5-min Rain = 0
KQU1 231913Z 35012G17KT 13/10 A3008 RMK A01 T01330103  RH  082%=      5-min Rain = 0
KQU1 231914Z 01011G16KT 13/10 A3008 RMK A01 T01320098  RH  080%=      5-min Rain = 0
KQU1 231915Z 01006KT 13/10 A3008 RMK A01 T01310100  RH  081%=      5-min Rain = 0
KQU1 231916Z 00006KT 13/10 A3008 RMK A01 T01320102  RH  082%=      5-min Rain = 0
KQU1 231917Z 02005KT 13/10 A3008 RMK A01 T01320103  RH  083%=      5-min Rain = 0
KQU1 231918Z 01007KT 13/10 A3008 RMK A01 T01330103  RH  082%=      5-min Rain = 0
KQU1 231919Z 01008KT 13/10 A3008 RMK A01 T01330101  RH  081%=      5-min Rain = 0
KQU1 231920Z 02008G14KT 13/10 A3008 RMK A01 T01330102  RH  081%=      5-min Rain = 0
KQU1 231921Z 01006G13KT 13/10 A3008 RMK A01 T01330102  RH  082%=      5-min Rain = 0
KQU1 231922Z 00007G13KT 13/10 A3008 RMK A01 T01330100  RH  081%=      5-min Rain = 0
KQU1 231923Z 36010KT 13/10 A3008 RMK A01 T01320098  RH  080%=      5-min Rain = 0
KQU1 231924Z 00005G11KT 13/10 A3008 RMK A01 T01320100  RH  081%=      5-min Rain = 0
KQU1 231925Z 35005G10KT 13/10 A3008 RMK A01 T01320101  RH  082%=      5-min Rain = 0
KQU1 231926Z 01005G10KT 13/10 A3008 RMK A01 T01330101  RH  081%=      5-min Rain = 0
KQU1 231927Z 34004KT 13/11 A3008 RMK A01 T01340105  RH  082%=      5-min Rain = 0
KQU1 231928Z 35009KT 14/10 A3008 RMK A01 T01350102  RH  081%=      5-min Rain = 0
KQU1 231929Z 35008KT 14/10 A3008 RMK A01 T01350102  RH  081%=      5-min Rain = 0
KQU1 231930Z 35005KT 14/10 A3008 RMK A01 T01350103  RH  081%=      5-min Rain = 0
KQU1 231931Z 36004G9KT 14/11 A3008 RMK A01 T01360106  RH  082%=      5-min Rain = 0
KQU1 231932Z 36003KT 14/11 A3008 RMK A01 T01370107  RH  082%=      5-min Rain = 0
KQU1 231933Z 35006KT 14/11 A3008 RMK A01 T01390111  RH  083%=      5-min Rain = 0
KQU1 231934Z 00008KT 14/11 A3008 RMK A01 T01400106  RH  080%=      5-min Rain = 0
KQU1 231935Z 02006G12KT 14/11 A3008 RMK A01 T01390105  RH  080%=      5-min Rain = 0
KQU1 231936Z 01007G12KT 14/10 A3008 RMK A01 T01380104  RH  080%=      5-min Rain = 0
KQU1 231937Z 00004KT 14/11 A3008 RMK A01 T01380105  RH  080%=      5-min Rain = 0
KQU1 231938Z 01005G10KT 14/11 A3008 RMK A01 T01400108  RH  081%=      5-min Rain = 0
KQU1 231939Z 01008G14KT 14/11 A3008 RMK A01 T01400105  RH  079%=      5-min Rain = 0
KQU1 231940Z 02005G10KT 14/11 A3008 RMK A01 T01410107  RH  080%=      5-min Rain = 0
KQU1 231941Z 02010KT 14/10 A3008 RMK A01 T01400103  RH  078%=      5-min Rain = 0
KQU1 231942Z 00007KT 14/10 A3008 RMK A01 T01390103  RH  079%=      5-min Rain = 0
KQU1 231943Z 01006KT 14/10 A3008 RMK A01 T01390103  RH  079%=      5-min Rain = 0
KQU1 231944Z 35005KT 14/11 A3008 RMK A01 T01390105  RH  080%=      5-min Rain = 0
KQU1 231945Z 36008KT 14/11 A3008 RMK A01 T01400105  RH  079%=      5-min Rain = 0
KQU1 231946Z 01006KT 14/11 A3007 RMK A01 T01400105  RH  079%=      5-min Rain = 0
KQU1 231947Z 36006KT 14/11 A3008 RMK A01 T01410107  RH  080%=      5-min Rain = 0
KQU1 231948Z 35009KT 14/10 A3008 RMK A01 T01410104  RH  078%=      5-min Rain = 0
KQU1 231949Z 00008KT 14/10 A3008 RMK A01 T01400102  RH  078%=      5-min Rain = 0
KQU1 231950Z 35006G11KT 14/10 A3008 RMK A01 T01400102  RH  078%=      5-min Rain = 0
KQU1 231951Z 35003G10KT 14/11 A3008 RMK A01 T01400107  RH  080%=      5-min Rain = 0
KQU1 231952Z 02005G10KT 14/11 A3008 RMK A01 T01420108  RH  080%=      5-min Rain = 0
KQU1 231953Z 36004KT 14/11 A3008 RMK A01 T01420106  RH  079%=      5-min Rain = 0
KQU1 231954Z 34005KT 14/11 A3008 RMK A01 T01430109  RH  080%=      5-min Rain = 0
KQU1 231955Z 34007KT 14/10 A3008 RMK A01 T01420104  RH  078%=      5-min Rain = 0
KQU1 231956Z 36005KT 14/10 A3008 RMK A01 T01420104  RH  078%=      5-min Rain = 0
KQU1 231957Z 01007G12KT 14/11 A3008 RMK A01 T01420106  RH  079%=      5-min Rain = 0
KQU1 231958Z 01005G10KT 14/11 A3008 RMK A01 T01420106  RH  079%=      5-min Rain = 0
KQU1 231959Z 36008KT 14/11 A3008 RMK A01 T01420105  RH  078%=      5-min Rain = 0
KQU1 232000Z 00005KT 14/11 A3008 RMK A01 T01420107  RH  079%=      5-min Rain = 0
KQU1 232001Z 01002KT 14/11 A3008 RMK A01 T01430108  RH  079%=      5-min Rain = 0
KQU1 232002Z 00002KT 14/11 A3008 RMK A01 T01440107  RH  079%=      5-min Rain = 0
KQU1 232003Z 35004KT 14/11 A3008 RMK A01 T01440107  RH  078%=      5-min Rain = 0
KQU1 232004Z 33005KT 14/11 A3008 RMK A01 T01440108  RH  079%=      5-min Rain = 0
KQU1 232005Z 35006KT 14/11 A3008 RMK A01 T01440106  RH  078%=      5-min Rain = 0
KQU1 232006Z 04001KT 15/11 A3008 RMK A01 T01450110  RH  080%=      5-min Rain = 0
KQU1 232007Z 35005KT 15/11 A3008 RMK A01 T01450108  RH  078%=      5-min Rain = 0
KQU1 232008Z 35006KT 14/10 A3008 RMK A01 T01430103  RH  077%=      5-min Rain = 0
KQU1 232009Z 35009KT 14/10 A3008 RMK A01 T01410103  RH  077%=      5-min Rain = 0
KQU1 232010Z 34008KT 14/10 A3008 RMK A01 T01410104  RH  078%=      5-min Rain = 0
KQU1 232011Z 35008KT 14/10 A3008 RMK A01 T01400102  RH  078%=      5-min Rain = 0
KQU1 232012Z 34007KT 14/10 A3008 RMK A01 T01390101  RH  078%=      5-min Rain = 0
KQU1 232013Z 35008KT 14/10 A3008 RMK A01 T01390103  RH  079%=      5-min Rain = 0
KQU1 232014Z 36004KT 14/10 A3008 RMK A01 T01390102  RH  079%=      5-min Rain = 0
KQU1 232015Z 01005KT 14/10 A3008 RMK A01 T01390104  RH  079%=      5-min Rain = 0
KQU1 232016Z 02005KT 14/10 A3008 RMK A01 T01400104  RH  079%=      5-min Rain = 0
KQU1 232017Z 03004G9KT 14/10 A3008 RMK A01 T01390102  RH  078%=      5-min Rain = 0
KQU1 232018Z 34005KT 14/11 A3008 RMK A01 T01400105  RH  080%=      5-min Rain = 0
KQU1 232019Z 00005KT 14/10 A3008 RMK A01 T01400103  RH  079%=      5-min Rain = 0
KQU1 232020Z 01004KT 14/10 A3008 RMK A01 T01400104  RH  079%=      5-min Rain = 0
KQU1 232021Z 35004KT 14/10 A3008 RMK A01 T01400103  RH  078%=      5-min Rain = 0
KQU1 232022Z 02004KT 14/11 A3008 RMK A01 T01410105  RH  079%=      5-min Rain = 0
KQU1 232023Z 03002KT 14/11 A3008 RMK A01 T01410107  RH  080%=      5-min Rain = 0
KQU1 232024Z 02006KT 14/11 A3008 RMK A01 T01420105  RH  078%=      5-min Rain = 0
KQU1 232025Z 03008KT 14/10 A3007 RMK A01 T01420103  RH  077%=      5-min Rain = 0
KQU1 232026Z 03007KT 14/10 A3007 RMK A01 T01420103  RH  077%=      5-min Rain = 0
KQU1 232027Z 02005G10KT 14/10 A3007 RMK A01 T01420103  RH  077%=      5-min Rain = 0
KQU1 232028Z 02006KT 14/10 A3007 RMK A01 T01420102  RH  077%=      5-min Rain = 0
KQU1 232029Z 00005KT 14/10 A3007 RMK A01 T01420104  RH  078%=      5-min Rain = 0
KQU1 232030Z 35005KT 14/11 A3007 RMK A01 T01430105  RH  078%=      5-min Rain = 0
KQU1 232031Z 02004KT 14/10 A3007 RMK A01 T01430101  RH  076%=      5-min Rain = 0
KQU1 232032Z 04002KT 14/10 A3007 RMK A01 T01430104  RH  077%=      5-min Rain = 0
KQU1 232033Z 36003KT 15/11 A3007 RMK A01 T01450107  RH  078%=      5-min Rain = 0
KQU1 232034Z 04005G10KT 15/11 A3008 RMK A01 T01460106  RH  077%=      5-min Rain = 0
KQU1 232035Z 03008KT 15/10 A3008 RMK A01 T01450100  RH  074%=      5-min Rain = 0
KQU1 232036Z 03008KT 14/10 A3007 RMK A01 T01430098  RH  074%=      5-min Rain = 0
KQU1 232037Z 04008KT 14/10 A3007 RMK A01 T01430099  RH  075%=      5-min Rain = 0
KQU1 232038Z 02007KT 14/10 A3007 RMK A01 T01420099  RH  075%=      5-min Rain = 0
KQU1 232039Z 01006KT 14/10 A3007 RMK A01 T01420100  RH  076%=      5-min Rain = 0
KQU1 232040Z 03007KT 14/10 A3007 RMK A01 T01420100  RH  075%=      5-min Rain = 0
KQU1 232041Z 02005KT 14/10 A3008 RMK A01 T01430101  RH  076%=      5-min Rain = 0
KQU1 232042Z 01004KT 14/10 A3007 RMK A01 T01440103  RH  077%=      5-min Rain = 0
KQU1 232043Z 35005KT 14/10 A3007 RMK A01 T01440101  RH  076%=      5-min Rain = 0
KQU1 232044Z 01004KT 14/10 A3007 RMK A01 T01440103  RH  076%=      5-min Rain = 0
KQU1 232045Z 02003KT 15/11 A3007 RMK A01 T01450106  RH  077%=      5-min Rain = 0
KQU1 232046Z 36006KT 15/11 A3007 RMK A01 T01460105  RH  076%=      5-min Rain = 0
KQU1 232047Z 36004KT 15/10 A3007 RMK A01 T01460102  RH  075%=      5-min Rain = 0
KQU1 232048Z 34003KT 15/11 A3007 RMK A01 T01470105  RH  076%=      5-min Rain = 0
KQU1 232049Z 34005KT 15/10 A3007 RMK A01 T01470104  RH  075%=      5-min Rain = 0
KQU1 232050Z 35004KT 15/10 A3007 RMK A01 T01460101  RH  074%=      5-min Rain = 0
KQU1 232051Z 03002KT 15/10 A3007 RMK A01 T01460102  RH  075%=      5-min Rain = 0
KQU1 232052Z 33002KT 15/10 A3007 RMK A01 T01470102  RH  075%=      5-min Rain = 0
KQU1 232053Z 35005KT 15/10 A3007 RMK A01 T01470102  RH  074%=      5-min Rain = 0
KQU1 232054Z 01006KT 15/10 A3007 RMK A01 T01470101  RH  074%=      5-min Rain = 0
KQU1 232055Z 35005KT 15/10 A3007 RMK A01 T01470100  RH  073%=      5-min Rain = 0
KQU1 232056Z 35005KT 15/10 A3007 RMK A01 T01460096  RH  072%=      5-min Rain = 0
KQU1 232057Z 01005KT 15/10 A3007 RMK A01 T01460101  RH  074%=      5-min Rain = 0
KQU1 232058Z 04004KT 15/10 A3007 RMK A01 T01470101  RH  074%=      5-min Rain = 0
KQU1 232059Z 05003KT 15/10 A3007 RMK A01 T01480101  RH  074%=      5-min Rain = 0
KQU1 232100Z 04003KT 15/10 A3007 RMK A01 T01480102  RH  074%=      5-min Rain = 0
KQU1 232101Z 04003KT 15/10 A3007 RMK A01 T01490104  RH  074%=      5-min Rain = 0
KQU1 232102Z 04004KT 15/10 A3007 RMK A01 T01490103  RH  074%=      5-min Rain = 0
KQU1 232103Z 04006KT 15/10 A3007 RMK A01 T01490100  RH  072%=      5-min Rain = 0
KQU1 232104Z 04005KT 15/10 A3007 RMK A01 T01480100  RH  073%=      5-min Rain = 0
KQU1 232105Z 04006KT 15/10 A3007 RMK A01 T01480099  RH  072%=      5-min Rain = 0
KQU1 232106Z 05004KT 15/10 A3007 RMK A01 T01480101  RH  073%=      5-min Rain = 0
KQU1 232107Z 03003KT 15/10 A3007 RMK A01 T01480101  RH  074%=      5-min Rain = 0
KQU1 232108Z 02004KT 15/10 A3007 RMK A01 T01480102  RH  074%=      5-min Rain = 0
KQU1 232109Z 02006KT 15/10 A3007 RMK A01 T01480103  RH  074%=      5-min Rain = 0
KQU1 232110Z 04004KT 15/10 A3007 RMK A01 T01480100  RH  073%=      5-min Rain = 0
KQU1 232111Z 02005KT 15/10 A3007 RMK A01 T01480098  RH  072%=      5-min Rain = 0
KQU1 232112Z 04007KT 15/10 A3007 RMK A01 T01470097  RH  071%=      5-min Rain = 0
KQU1 232113Z 03005KT 15/10 A3007 RMK A01 T01470096  RH  072%=      5-min Rain = 0
KQU1 232114Z 03004KT 15/10 A3007 RMK A01 T01470097  RH  072%=      5-min Rain = 0
KQU1 232115Z 03006KT 15/10 A3007 RMK A01 T01470098  RH  072%=      5-min Rain = 0
KQU1 232116Z 04007KT 15/10 A3007 RMK A01 T01470098  RH  072%=      5-min Rain = 0
KQU1 232117Z 04007KT 15/10 A3007 RMK A01 T01470096  RH  071%=      5-min Rain = 0
KQU1 232118Z 04006KT 15/10 A3006 RMK A01 T01470095  RH  071%=      5-min Rain = 0
KQU1 232119Z 05004KT 15/10 A3006 RMK A01 T01470097  RH  072%=      5-min Rain = 0
KQU1 232120Z 05003KT 15/10 A3006 RMK A01 T01470096  RH  071%=      5-min Rain = 0
KQU1 232121Z 02004KT 15/10 A3006 RMK A01 T01480098  RH  072%=      5-min Rain = 0
KQU1 232122Z 03003KT 15/10 A3006 RMK A01 T01480098  RH  072%=      5-min Rain = 0
KQU1 232123Z 05002KT 15/10 A3006 RMK A01 T01490101  RH  073%=      5-min Rain = 0
KQU1 232124Z 04003KT 15/10 A3006 RMK A01 T01500100  RH  072%=      5-min Rain = 0
KQU1 232125Z 04006KT 15/10 A3006 RMK A01 T01500099  RH  071%=      5-min Rain = 0
KQU1 232126Z 06004KT 15/10 A3006 RMK A01 T01500099  RH  071%=      5-min Rain = 0
KQU1 232127Z 06004KT 15/10 A3006 RMK A01 T01500102  RH  073%=      5-min Rain = 0
KQU1 232128Z 05004KT 15/10 A3006 RMK A01 T01510102  RH  073%=      5-min Rain = 0
KQU1 232129Z 03004KT 15/10 A3006 RMK A01 T01510104  RH  073%=      5-min Rain = 0
KQU1 232130Z 03005KT 15/10 A3006 RMK A01 T01510104  RH  073%=      5-min Rain = 0
KQU1 232131Z 03004KT 15/10 A3006 RMK A01 T01520104  RH  073%=      5-min Rain = 0
KQU1 232132Z 02002KT 15/10 A3006 RMK A01 T01520100  RH  071%=      5-min Rain = 0
KQU1 232133Z 01000KT 15/10 A3006 RMK A01 T01520099  RH  071%=      5-min Rain = 0
KQU1 232134Z 00000KT 15/10 A3006 RMK A01 T01520099  RH  071%=      5-min Rain = 0
KQU1 232135Z 07003KT 15/10 A3006 RMK A01 T01520101  RH  071%=      5-min Rain = 0
KQU1 232136Z 04004KT 15/11 A3006 RMK A01 T01540106  RH  073%=      5-min Rain = 0
KQU1 232137Z 02004KT 15/10 A3006 RMK A01 T01540103  RH  071%=      5-min Rain = 0
KQU1 232138Z 03005KT 15/10 A3006 RMK A01 T01530102  RH  071%=      5-min Rain = 0
KQU1 232139Z 02006KT 15/10 A3006 RMK A01 T01530102  RH  072%=      5-min Rain = 0
KQU1 232140Z 04005KT 15/10 A3006 RMK A01 T01520101  RH  072%=      5-min Rain = 0
KQU1 232141Z 05004KT 15/10 A3006 RMK A01 T01510101  RH  072%=      5-min Rain = 0
KQU1 232142Z 06003KT 15/10 A3006 RMK A01 T01520102  RH  072%=      5-min Rain = 0
KQU1 232143Z 05003KT 15/10 A3006 RMK A01 T01520103  RH  073%=      5-min Rain = 0
KQU1 232144Z 03003KT 15/10 A3006 RMK A01 T01520104  RH  073%=      5-min Rain = 0
KQU1 232145Z 04003KT 15/11 A3006 RMK A01 T01530106  RH  073%=      5-min Rain = 0
KQU1 232146Z 04002KT 15/10 A3006 RMK A01 T01530104  RH  072%=      5-min Rain = 0
KQU1 232147Z 04003KT 15/10 A3006 RMK A01 T01540103  RH  072%=      5-min Rain = 0
KQU1 232148Z 02003KT 15/10 A3006 RMK A01 T01540100  RH  070%=      5-min Rain = 0
KQU1 232149Z 03004KT 15/10 A3006 RMK A01 T01530103  RH  072%=      5-min Rain = 0
KQU1 232150Z 01005KT 15/10 A3006 RMK A01 T01540101  RH  071%=      5-min Rain = 0
KQU1 232151Z 01003KT 15/10 A3005 RMK A01 T01530102  RH  072%=      5-min Rain = 0
KQU1 232152Z 01003KT 15/10 A3005 RMK A01 T01530103  RH  072%=      5-min Rain = 0
KQU1 232153Z 01003KT 15/11 A3005 RMK A01 T01540105  RH  073%=      5-min Rain = 0
KQU1 232154Z 02003KT 15/10 A3005 RMK A01 T01540104  RH  072%=      5-min Rain = 0
KQU1 232155Z 03003KT 15/11 A3005 RMK A01 T01540107  RH  073%=      5-min Rain = 0
KQU1 232156Z 02005KT 16/11 A3005 RMK A01 T01550106  RH  072%=      5-min Rain = 0
KQU1 232157Z 03004KT 16/11 A3005 RMK A01 T01550105  RH  072%=      5-min Rain = 0
KQU1 232158Z 00006KT 16/10 A3005 RMK A01 T01550103  RH  071%=      5-min Rain = 0
KQU1 232159Z 35005KT 15/10 A3005 RMK A01 T01540101  RH  070%=      5-min Rain = 0
KQU1 232200Z 35005KT 15/10 A3005 RMK A01 T01540103  RH  071%=      5-min Rain = 0
KQU1 232201Z 35006KT 15/10 A3005 RMK A01 T01540102  RH  071%=      5-min Rain = 0
KQU1 232202Z 00003KT 15/10 A3005 RMK A01 T01540103  RH  071%=      5-min Rain = 0
KQU1 232203Z 00004KT 16/10 A3005 RMK A01 T01550102  RH  071%=      5-min Rain = 0
KQU1 232204Z 04002KT 16/11 A3005 RMK A01 T01550105  RH  072%=      5-min Rain = 0
KQU1 232205Z 03005KT 16/10 A3005 RMK A01 T01550101  RH  070%=      5-min Rain = 0
KQU1 232206Z 03003KT 16/10 A3005 RMK A01 T01550102  RH  071%=      5-min Rain = 0
KQU1 232207Z 01004KT 16/10 A3005 RMK A01 T01550103  RH  071%=      5-min Rain = 0
KQU1 232208Z 00004KT 16/10 A3005 RMK A01 T01550101  RH  070%=      5-min Rain = 0
KQU1 232209Z 03002KT 16/10 A3005 RMK A01 T01550104  RH  072%=      5-min Rain = 0
KQU1 232210Z 03004KT 16/11 A3005 RMK A01 T01550105  RH  072%=      5-min Rain = 0
KQU1 232211Z 02002KT 16/10 A3005 RMK A01 T01560104  RH  071%=      5-min Rain = 0
KQU1 232212Z 03004KT 16/11 A3005 RMK A01 T01560106  RH  072%=      5-min Rain = 0
KQU1 232213Z 02003KT 16/11 A3005 RMK A01 T01560106  RH  072%=      5-min Rain = 0
KQU1 232214Z 01005KT 16/10 A3005 RMK A01 T01560104  RH  071%=      5-min Rain = 0
KQU1 232215Z 36005KT 16/10 A3005 RMK A01 T01560104  RH  071%=      5-min Rain = 0
KQU1 232216Z 00004KT 16/10 A3005 RMK A01 T01550102  RH  071%=      5-min Rain = 0
KQU1 232217Z 00004KT 16/10 A3005 RMK A01 T01550104  RH  071%=      5-min Rain = 0
KQU1 232218Z 02003KT 16/11 A3005 RMK A01 T01560106  RH  072%=      5-min Rain = 0
KQU1 232219Z 36003KT 16/11 A3005 RMK A01 T01560107  RH  072%=      5-min Rain = 0
KQU1 232220Z 01003KT 16/11 A3004 RMK A01 T01560106  RH  072%=      5-min Rain = 0
KQU1 232221Z 35006KT 16/11 A3004 RMK A01 T01560105  RH  071%=      5-min Rain = 0
KQU1 232222Z 33008KT 16/10 A3004 RMK A01 T01560103  RH  071%=      5-min Rain = 0
KQU1 232223Z 34008KT 16/10 A3004 RMK A01 T01560101  RH  070%=      5-min Rain = 0
KQU1 232224Z 35009KT 16/10 A3004 RMK A01 T01550101  RH  070%=      5-min Rain = 0
KQU1 232225Z 35008KT 16/10 A3004 RMK A01 T01550100  RH  070%=      5-min Rain = 0
KQU1 232226Z 33006KT 16/10 A3004 RMK A01 T01550101  RH  070%=      5-min Rain = 0
KQU1 232227Z 34006KT 16/10 A3004 RMK A01 T01550100  RH  070%=      5-min Rain = 0
KQU1 232228Z 33007KT 15/10 A3004 RMK A01 T01540099  RH  070%=      5-min Rain = 0
KQU1 232229Z 34007KT 15/10 A3004 RMK A01 T01540101  RH  070%=      5-min Rain = 0
KQU1 232230Z 35007KT 15/10 A3004 RMK A01 T01540101  RH  071%=      5-min Rain = 0
KQU1 232231Z 01006KT 16/10 A3004 RMK A01 T01550103  RH  071%=      5-min Rain = 0
KQU1 232232Z 01002KT 16/10 A3004 RMK A01 T01550104  RH  071%=      5-min Rain = 0
KQU1 232233Z 02005KT 16/10 A3004 RMK A01 T01560104  RH  071%=      5-min Rain = 0
KQU1 232234Z 34003KT 16/11 A3004 RMK A01 T01570106  RH  072%=      5-min Rain = 0
KQU1 232235Z 35007KT 16/11 A3004 RMK A01 T01570105  RH  071%=      5-min Rain = 0
KQU1 232236Z 34006KT 16/10 A3004 RMK A01 T01570104  RH  070%=      5-min Rain = 0
KQU1 232237Z 34007KT 16/10 A3004 RMK A01 T01570101  RH  069%=      5-min Rain = 0
KQU1 232238Z 35007G12KT 16/10 A3004 RMK A01 T01560098  RH  068%=      5-min Rain = 0
KQU1 232239Z 36009KT 16/10 A3004 RMK A01 T01550100  RH  069%=      5-min Rain = 0
KQU1 232240Z 00008KT 16/10 A3004 RMK A01 T01550098  RH  069%=      5-min Rain = 0
KQU1 232241Z 00008KT 16/10 A3004 RMK A01 T01550099  RH  069%=      5-min Rain = 0
KQU1 232242Z 36006KT 16/10 A3004 RMK A01 T01550099  RH  069%=      5-min Rain = 0
KQU1 232243Z 02006KT 16/10 A3004 RMK A01 T01550098  RH  069%=      5-min Rain = 0
KQU1 232244Z 01003KT 16/10 A3004 RMK A01 T01550099  RH  069%=      5-min Rain = 0
KQU1 232245Z 03006KT 16/10 A3004 RMK A01 T01550100  RH  069%=      5-min Rain = 0
KQU1 232246Z 00007G12KT 16/10 A3004 RMK A01 T01550099  RH  069%=      5-min Rain = 0
KQU1 232247Z 02007G12KT 16/10 A3004 RMK A01 T01550098  RH  069%=      5-min Rain = 0
KQU1 232248Z 01003G8KT 16/10 A3004 RMK A01 T01550100  RH  070%=      5-min Rain = 0
KQU1 232249Z 34004G9KT 16/10 A3004 RMK A01 T01560104  RH  071%=      5-min Rain = 0
KQU1 232250Z 00006KT 16/10 A3003 RMK A01 T01560102  RH  070%=      5-min Rain = 0
KQU1 232251Z 36007KT 16/10 A3003 RMK A01 T01560101  RH  070%=      5-min Rain = 0
KQU1 232252Z 01002KT 16/10 A3003 RMK A01 T01560102  RH  070%=      5-min Rain = 0
KQU1 232253Z 35007KT 16/10 A3003 RMK A01 T01560100  RH  069%=      5-min Rain = 0
KQU1 232254Z 00003KT 16/10 A3003 RMK A01 T01550103  RH  071%=      5-min Rain = 0
KQU1 232255Z 34007KT 16/10 A3003 RMK A01 T01550102  RH  071%=      5-min Rain = 0
KQU1 232256Z 36008KT 16/10 A3003 RMK A01 T01550100  RH  070%=      5-min Rain = 0
KQU1 232257Z 35007G12KT 16/10 A3003 RMK A01 T01550099  RH  070%=      5-min Rain = 0
KQU1 232258Z 35008KT 15/10 A3003 RMK A01 T01540101  RH  070%=      5-min Rain = 0
KQU1 232259Z 01006KT 15/10 A3003 RMK A01 T01540101  RH  071%=      5-min Rain = 0
KQU1 232300Z 36008G13KT 16/10 A3003 RMK A01 T01550101  RH  070%=      5-min Rain = 0
KQU1 232301Z 36007G12KT 15/10 A3003 RMK A01 T01540099  RH  070%=      5-min Rain = 0
KQU1 232302Z 00008KT 15/10 A3003 RMK A01 T01540100  RH  070%=      5-min Rain = 0
KQU1 232303Z 36005KT 15/10 A3003 RMK A01 T01540101  RH  071%=      5-min Rain = 0
KQU1 232304Z 36005G10KT 15/11 A3003 RMK A01 T01540105  RH  072%=      5-min Rain = 0
KQU1 232305Z 35007KT 16/10 A3003 RMK A01 T01550103  RH  071%=      5-min Rain = 0
KQU1 232306Z 36007KT 16/10 A3003 RMK A01 T01550103  RH  071%=      5-min Rain = 0
KQU1 232307Z 00007KT 16/10 A3003 RMK A01 T01550103  RH  071%=      5-min Rain = 0
KQU1 232308Z 34003KT 16/10 A3003 RMK A01 T01550103  RH  071%=      5-min Rain = 0
KQU1 232309Z 35005KT 16/11 A3003 RMK A01 T01550106  RH  072%=      5-min Rain = 0
KQU1 232310Z 36008G13KT 16/10 A3003 RMK A01 T01550104  RH  072%=      5-min Rain = 0
KQU1 232311Z 36009KT 16/10 A3003 RMK A01 T01550102  RH  071%=      5-min Rain = 0
KQU1 232312Z 36009G14KT 15/10 A3003 RMK A01 T01540102  RH  071%=      5-min Rain = 0
KQU1 232313Z 36007KT 15/10 A3003 RMK A01 T01540104  RH  072%=      5-min Rain = 0
KQU1 232314Z 01007KT 16/10 A3003 RMK A01 T01550103  RH  071%=      5-min Rain = 0
KQU1 232315Z 36007G13KT 15/10 A3003 RMK A01 T01540102  RH  071%=      5-min Rain = 0
KQU1 232316Z 00008KT 15/10 A3003 RMK A01 T01540104  RH  072%=      5-min Rain = 0
KQU1 232317Z 36008KT 16/10 A3003 RMK A01 T01550104  RH  072%=      5-min Rain = 0
KQU1 232318Z 36005G11KT 16/11 A3003 RMK A01 T01550105  RH  072%=      5-min Rain = 0
KQU1 232319Z 01005KT 16/11 A3003 RMK A01 T01550107  RH  073%=      5-min Rain = 0
KQU1 232320Z 35005KT 16/11 A3003 RMK A01 T01550105  RH  072%=      5-min Rain = 0
KQU1 232321Z 01006KT 16/10 A3003 RMK A01 T01550104  RH  072%=      5-min Rain = 0
KQU1 232322Z 00007KT 16/10 A3003 RMK A01 T01550102  RH  071%=      5-min Rain = 0
KQU1 232323Z 01006KT 15/10 A3003 RMK A01 T01540102  RH  071%=      5-min Rain = 0
KQU1 232324Z 35006KT 15/10 A3003 RMK A01 T01540103  RH  071%=      5-min Rain = 0
KQU1 232325Z 35007KT 15/10 A3003 RMK A01 T01540103  RH  072%=      5-min Rain = 0
KQU1 232326Z 35007KT 15/10 A3003 RMK A01 T01540102  RH  071%=      5-min Rain = 0
KQU1 232327Z 35003KT 15/11 A3003 RMK A01 T01540105  RH  073%=      5-min Rain = 0
KQU1 232328Z 35004KT 15/11 A3003 RMK A01 T01540106  RH  073%=      5-min Rain = 0
KQU1 232329Z 02004G10KT 15/10 A3003 RMK A01 T01540104  RH  072%=      5-min Rain = 0
KQU1 232330Z 02006G11KT 15/10 A3003 RMK A01 T01540102  RH  071%=      5-min Rain = 0
KQU1 232331Z 01004KT 15/10 A3003 RMK A01 T01540104  RH  072%=      5-min Rain = 0
KQU1 232332Z 02007KT 15/10 A3003 RMK A01 T01540103  RH  071%=      5-min Rain = 0
KQU1 232333Z 00005G10KT 15/10 A3003 RMK A01 T01540103  RH  072%=      5-min Rain = 0
KQU1 232334Z 36008KT 15/10 A3003 RMK A01 T01540101  RH  071%=      5-min Rain = 0
KQU1 232335Z 36004KT 15/10 A3003 RMK A01 T01540102  RH  071%=      5-min Rain = 0
KQU1 232336Z 00006KT 15/10 A3003 RMK A01 T01540102  RH  071%=      5-min Rain = 0
KQU1 232337Z 35004KT 15/10 A3003 RMK A01 T01540102  RH  071%=      5-min Rain = 0
KQU1 232338Z 02007KT 15/10 A3003 RMK A01 T01540102  RH  071%=      5-min Rain = 0
KQU1 232339Z 36005KT 15/10 A3003 RMK A01 T01540103  RH  071%=      5-min Rain = 0
KQU1 232340Z 34004KT 15/10 A3003 RMK A01 T01540103  RH  071%=      5-min Rain = 0
KQU1 232341Z 35005KT 15/10 A3003 RMK A01 T01540102  RH  071%=      5-min Rain = 0
KQU1 232342Z 01004KT 15/10 A3003 RMK A01 T01540103  RH  072%=      5-min Rain = 0
KQU1 232343Z 35001KT 15/10 A3003 RMK A01 T01540104  RH  072%=      5-min Rain = 0
KQU1 232344Z 01005KT 15/10 A3003 RMK A01 T01540103  RH  072%=      5-min Rain = 0
KQU1 232345Z 02003KT 15/10 A3003 RMK A01 T01540103  RH  071%=      5-min Rain = 0
KQU1 232346Z 01003KT 15/10 A3003 RMK A01 T01540102  RH  071%=      5-min Rain = 0
KQU1 232347Z 01004KT 15/10 A3003 RMK A01 T01540104  RH  072%=      5-min Rain = 0
KQU1 232348Z 36005KT 15/10 A3003 RMK A01 T01540103  RH  072%=      5-min Rain = 0
KQU1 232349Z 01005G10KT 15/10 A3003 RMK A01 T01540102  RH  071%=      5-min Rain = 0
KQU1 232350Z 03003KT 15/10 A3003 RMK A01 T01540104  RH  072%=      5-min Rain = 0
KQU1 232351Z 02005KT 15/10 A3003 RMK A01 T01540103  RH  072%=      5-min Rain = 0
KQU1 232352Z 02005KT 15/10 A3003 RMK A01 T01540104  RH  072%=      5-min Rain = 0
KQU1 232353Z 01003KT 15/11 A3003 RMK A01 T01540105  RH  072%=      5-min Rain = 0
KQU1 232354Z 01005KT 15/10 A3003 RMK A01 T01540104  RH  072%=      5-min Rain = 0
KQU1 232355Z 01005KT 15/10 A3003 RMK A01 T01540103  RH  072%=      5-min Rain = 0
KQU1 232356Z 01005KT 15/10 A3003 RMK A01 T01540104  RH  072%=      5-min Rain = 0
KQU1 232357Z 01004G9KT 15/10 A3003 RMK A01 T01530103  RH  072%=      5-min Rain = 0
KQU1 232358Z 01006KT 15/10 A3003 RMK A01 T01530103  RH  072%=      5-min Rain = 0
KQU1 232359Z 01007KT 15/10 A3003 RMK A01 T01530102  RH  072%=      5-min Rain = 0
KQU1 240000Z 01004KT 15/10 A3003 RMK A01 T01530102  RH  072%=      5-min Rain = 0
KQU1 240001Z 36005KT 15/10 A3003 RMK A01 T01530102  RH  072%=      5-min Rain = 0
KQU1 240002Z 01006KT 15/10 A3003 RMK A01 T01530103  RH  072%=      5-min Rain = 0
KQU1 240003Z 03005KT 15/10 A3003 RMK A01 T01530104  RH  073%=      5-min Rain = 0
KQU1 240004Z 01004KT 15/11 A3003 RMK A01 T01530105  RH  073%=      5-min Rain = 0
KQU1 240005Z 01006KT 15/11 A3003 RMK A01 T01530105  RH  073%=      5-min Rain = 0
KQU1 240006Z 00008KT 15/10 A3003 RMK A01 T01530103  RH  072%=      5-min Rain = 0
KQU1 240007Z 00006KT 15/10 A3003 RMK A01 T01530104  RH  072%=      5-min Rain = 0
KQU1 240008Z 00006KT 15/11 A3003 RMK A01 T01530105  RH  073%=      5-min Rain = 0
KQU1 240009Z 36007KT 15/10 A3003 RMK A01 T01530104  RH  072%=      5-min Rain = 0
KQU1 240010Z 36007KT 15/10 A3003 RMK A01 T01530103  RH  072%=      5-min Rain = 0
KQU1 240011Z 35006KT 15/10 A3003 RMK A01 T01530104  RH  072%=      5-min Rain = 0
KQU1 240012Z 01004KT 15/10 A3003 RMK A01 T01530104  RH  073%=      5-min Rain = 0
KQU1 240013Z 01005KT 15/10 A3003 RMK A01 T01530104  RH  073%=      5-min Rain = 0
KQU1 240014Z 36005KT 15/11 A3003 RMK A01 T01530105  RH  073%=      5-min Rain = 0
KQU1 240015Z 00007G12KT 15/10 A3003 RMK A01 T01530104  RH  073%=      5-min Rain = 0
KQU1 240016Z 35005KT 15/10 A3003 RMK A01 T01530104  RH  073%=      5-min Rain = 0
KQU1 240017Z 00005G11KT 15/11 A3003 RMK A01 T01530106  RH  074%=      5-min Rain = 0
KQU1 240018Z 00005KT 15/11 A3003 RMK A01 T01530105  RH  073%=      5-min Rain = 0
KQU1 240019Z 01003KT 15/11 A3003 RMK A01 T01530106  RH  074%=      5-min Rain = 0
KQU1 240020Z 00004G10KT 15/11 A3003 RMK A01 T01530107  RH  074%=      5-min Rain = 0
KQU1 240021Z 35004KT 15/11 A3003 RMK A01 T01530107  RH  074%=      5-min Rain = 0
KQU1 240022Z 36005KT 15/11 A3003 RMK A01 T01530106  RH  074%=      5-min Rain = 0
KQU1 240023Z 36006KT 15/11 A3003 RMK A01 T01520105  RH  073%=      5-min Rain = 0
KQU1 240024Z 01006KT 15/11 A3003 RMK A01 T01520105  RH  074%=      5-min Rain = 0
KQU1 240025Z 35006KT 15/11 A3003 RMK A01 T01520106  RH  074%=      5-min Rain = 0
KQU1 240026Z 36006KT 15/11 A3003 RMK A01 T01520106  RH  074%=      5-min Rain = 0
KQU1 240027Z 36007KT 15/11 A3002 RMK A01 T01520105  RH  074%=      5-min Rain = 0
KQU1 240028Z 00006KT 15/11 A3002 RMK A01 T01520105  RH  074%=      5-min Rain = 0
KQU1 240029Z 01005KT 15/11 A3002 RMK A01 T01520106  RH  074%=      5-min Rain = 0
KQU1 240030Z 01003KT 15/11 A3002 RMK A01 T01520106  RH  074%=      5-min Rain = 0
KQU1 240031Z 35003KT 15/11 A3002 RMK A01 T01520107  RH  075%=      5-min Rain = 0
KQU1 240032Z 01004KT 15/11 A3002 RMK A01 T01520107  RH  075%=      5-min Rain = 0
KQU1 240033Z 36006KT 15/11 A3002 RMK A01 T01520106  RH  074%=      5-min Rain = 0
KQU1 240034Z 36006KT 15/11 A3002 RMK A01 T01520106  RH  074%=      5-min Rain = 0
KQU1 240035Z 00004KT 15/11 A3002 RMK A01 T01520107  RH  075%=      5-min Rain = 0
KQU1 240036Z 36002KT 15/11 A3002 RMK A01 T01520107  RH  075%=      5-min Rain = 0
KQU1 240037Z 02003KT 15/11 A3002 RMK A01 T01520107  RH  075%=      5-min Rain = 0
KQU1 240038Z 01003KT 15/11 A3002 RMK A01 T01520107  RH  075%=      5-min Rain = 0
KQU1 240039Z 35005KT 15/11 A3002 RMK A01 T01520108  RH  075%=      5-min Rain = 0
KQU1 240040Z 35004KT 15/11 A3002 RMK A01 T01510108  RH  075%=      5-min Rain = 0
KQU1 240041Z 01003KT 15/11 A3002 RMK A01 T01510108  RH  075%=      5-min Rain = 0
KQU1 240042Z 34004KT 15/11 A3002 RMK A01 T01510108  RH  075%=      5-min Rain = 0
KQU1 240043Z 01003KT 15/11 A3002 RMK A01 T01510108  RH  075%=      5-min Rain = 0
KQU1 240044Z 01004KT 15/11 A3002 RMK A01 T01520109  RH  076%=      5-min Rain = 0
KQU1 240045Z 00006KT 15/11 A3002 RMK A01 T01530109  RH  075%=      5-min Rain = 0
KQU1 240046Z 36005KT 15/11 A3002 RMK A01 T01530109  RH  075%=      5-min Rain = 0
KQU1 240047Z 36007KT 15/11 A3002 RMK A01 T01530108  RH  074%=      5-min Rain = 0
KQU1 240048Z 01004KT 15/11 A3002 RMK A01 T01530109  RH  075%=      5-min Rain = 0
KQU1 240049Z 00005KT 15/11 A3002 RMK A01 T01520109  RH  075%=      5-min Rain = 0
KQU1 240050Z 35007KT 15/11 A3002 RMK A01 T01520109  RH  075%=      5-min Rain = 0
KQU1 240051Z 01004KT 15/11 A3002 RMK A01 T01510108  RH  075%=      5-min Rain = 0
KQU1 240052Z 36006KT 15/11 A3002 RMK A01 T01510110  RH  076%=      5-min Rain = 0
KQU1 240053Z 35004KT 15/11 A3001 RMK A01 T01520111  RH  076%=      5-min Rain = 0
KQU1 240054Z 00003KT 15/11 A3001 RMK A01 T01530112  RH  077%=      5-min Rain = 0
KQU1 240055Z 01004G10KT 15/11 A3002 RMK A01 T01540112  RH  076%=      5-min Rain = 0
KQU1 240056Z 01006KT 15/11 A3002 RMK A01 T01540109  RH  074%=      5-min Rain = 0
KQU1 240057Z 00004KT 15/11 A3002 RMK A01 T01540109  RH  075%=      5-min Rain = 0
KQU1 240058Z 01004KT 15/11 A3002 RMK A01 T01540109  RH  075%=      5-min Rain = 0
KQU1 240059Z 02004KT 15/11 A3002 RMK A01 T01540109  RH  075%=      5-min Rain = 0
KQU1 240100Z 35005KT 15/11 A3002 RMK A01 T01540110  RH  075%=      5-min Rain = 0
KQU1 240101Z 01004KT 15/11 A3002 RMK A01 T01530109  RH  075%=      5-min Rain = 0
KQU1 240102Z 01003KT 15/11 A3002 RMK A01 T01530109  RH  075%=      5-min Rain = 0
KQU1 240103Z 00003KT 15/11 A3002 RMK A01 T01530110  RH  075%=      5-min Rain = 0
KQU1 240104Z 00004KT 15/11 A3002 RMK A01 T01520109  RH  076%=      5-min Rain = 0
KQU1 240105Z 35002KT 15/11 A3002 RMK A01 T01520109  RH  076%=      5-min Rain = 0
KQU1 240106Z 00005KT 15/11 A3002 RMK A01 T01510109  RH  076%=      5-min Rain = 0
KQU1 240107Z 02004KT 15/11 A3002 RMK A01 T01500108  RH  076%=      5-min Rain = 0
KQU1 240108Z 02003KT 15/11 A3002 RMK A01 T01500108  RH  076%=      5-min Rain = 0
KQU1 240109Z 01003KT 15/11 A3002 RMK A01 T01490108  RH  076%=      5-min Rain = 0
KQU1 240110Z 02003KT 15/11 A3002 RMK A01 T01490108  RH  076%=      5-min Rain = 0
KQU1 240111Z 01003KT 15/11 A3002 RMK A01 T01490108  RH  077%=      5-min Rain = 0
KQU1 240112Z 02002KT 15/11 A3002 RMK A01 T01480108  RH  077%=      5-min Rain = 0
KQU1 240113Z 02003KT 15/11 A3002 RMK A01 T01480108  RH  077%=      5-min Rain = 0
KQU1 240114Z 02004KT 15/11 A3002 RMK A01 T01470108  RH  077%=      5-min Rain = 0
KQU1 240115Z 03004KT 15/11 A3002 RMK A01 T01470108  RH  077%=      5-min Rain = 0
KQU1 240116Z 01003KT 15/11 A3002 RMK A01 T01470108  RH  078%=      5-min Rain = 0
KQU1 240117Z 03003KT 15/11 A3002 RMK A01 T01460108  RH  078%=      5-min Rain = 0
KQU1 240118Z 02003KT 15/11 A3002 RMK A01 T01460108  RH  078%=      5-min Rain = 0
KQU1 240119Z 02003KT 15/11 A3002 RMK A01 T01460108  RH  078%=      5-min Rain = 0
KQU1 240120Z 02003KT 15/11 A3002 RMK A01 T01450107  RH  078%=      5-min Rain = 0
KQU1 240121Z 02004KT 15/11 A3002 RMK A01 T01450108  RH  078%=      5-min Rain = 0
KQU1 240122Z 02005KT 14/11 A3002 RMK A01 T01440107  RH  078%=      5-min Rain = 0
KQU1 240123Z 02004KT 14/11 A3003 RMK A01 T01440107  RH  079%=      5-min Rain = 0
KQU1 240124Z 02005KT 14/11 A3003 RMK A01 T01430107  RH  079%=      5-min Rain = 0
KQU1 240125Z 02004KT 14/11 A3003 RMK A01 T01430107  RH  079%=      5-min Rain = 0
KQU1 240126Z 03006KT 14/11 A3003 RMK A01 T01430106  RH  079%=      5-min Rain = 0
KQU1 240127Z 02006KT 14/11 A3003 RMK A01 T01430107  RH  079%=      5-min Rain = 0
KQU1 240128Z 03005KT 14/11 A3003 RMK A01 T01430107  RH  079%=      5-min Rain = 0
KQU1 240129Z 03006KT 14/11 A3003 RMK A01 T01420106  RH  079%=      5-min Rain = 0
KQU1 240130Z 03006KT 14/11 A3003 RMK A01 T01420107  RH  079%=      5-min Rain = 0
KQU1 240131Z 02006KT 14/11 A3003 RMK A01 T01420107  RH  079%=      5-min Rain = 0
KQU1 240132Z 03006KT 14/11 A3003 RMK A01 T01420107  RH  080%=      5-min Rain = 0
KQU1 240133Z 03006KT 14/11 A3003 RMK A01 T01410107  RH  080%=      5-min Rain = 0
KQU1 240134Z 03004KT 14/11 A3003 RMK A01 T01410107  RH  080%=      5-min Rain = 0
KQU1 240135Z 03004KT 14/11 A3004 RMK A01 T01410107  RH  080%=      5-min Rain = 0
KQU1 240136Z 03004KT 14/11 A3004 RMK A01 T01410108  RH  081%=      5-min Rain = 0
KQU1 240137Z 04004KT 14/11 A3004 RMK A01 T01400107  RH  081%=      5-min Rain = 0
KQU1 240138Z 03004KT 14/11 A3004 RMK A01 T01400107  RH  081%=      5-min Rain = 0
KQU1 240139Z 03003KT 14/11 A3004 RMK A01 T01400108  RH  081%=      5-min Rain = 0
KQU1 240140Z 03003KT 14/11 A3004 RMK A01 T01400108  RH  081%=      5-min Rain = 0
KQU1 240141Z 03003KT 14/11 A3004 RMK A01 T01400108  RH  081%=      5-min Rain = 0
KQU1 240142Z 03003KT 14/11 A3004 RMK A01 T01400109  RH  081%=      5-min Rain = 0
KQU1 240143Z 03003KT 14/11 A3004 RMK A01 T01400108  RH  081%=      5-min Rain = 0
KQU1 240144Z 04002KT 14/11 A3004 RMK A01 T01400109  RH  081%=      5-min Rain = 0
KQU1 240145Z 03003KT 14/11 A3004 RMK A01 T01400109  RH  082%=      5-min Rain = 0
KQU1 240146Z 04003KT 14/11 A3004 RMK A01 T01400109  RH  082%=      5-min Rain = 0
KQU1 240147Z 04004KT 14/11 A3004 RMK A01 T01390108  RH  081%=      5-min Rain = 0
KQU1 240148Z 03004KT 14/11 A3004 RMK A01 T01390108  RH  081%=      5-min Rain = 0
KQU1 240149Z 03004KT 14/11 A3004 RMK A01 T01390108  RH  081%=      5-min Rain = 0
KQU1 240150Z 03004KT 14/11 A3004 RMK A01 T01390108  RH  081%=      5-min Rain = 0
KQU1 240151Z 03004KT 14/11 A3004 RMK A01 T01390108  RH  082%=      5-min Rain = 0
KQU1 240152Z 02004KT 14/11 A3003 RMK A01 T01390109  RH  082%=      5-min Rain = 0
KQU1 240153Z 02004KT 14/11 A3003 RMK A01 T01390109  RH  082%=      5-min Rain = 0
KQU1 240154Z 01002KT 14/11 A3003 RMK A01 T01380108  RH  082%=      5-min Rain = 0
KQU1 240155Z 02003KT 14/11 A3003 RMK A01 T01380108  RH  082%=      5-min Rain = 0
KQU1 240156Z 00002KT 14/11 A3003 RMK A01 T01380108  RH  082%=      5-min Rain = 0
KQU1 240157Z 36002KT 14/11 A3003 RMK A01 T01370108  RH  083%=      5-min Rain = 0
KQU1 240158Z 35000KT 14/11 A3003 RMK A01 T01370108  RH  083%=      5-min Rain = 0
KQU1 240159Z 36002KT 14/11 A3003 RMK A01 T01360108  RH  083%=      5-min Rain = 0
KQU1 240200Z 00003KT 14/11 A3003 RMK A01 T01350107  RH  083%=      5-min Rain = 0
KQU1 240201Z 34002KT 13/11 A3003 RMK A01 T01340107  RH  083%=      5-min Rain = 0
KQU1 240202Z 35003KT 13/11 A3003 RMK A01 T01330106  RH  084%=      5-min Rain = 0
KQU1 240203Z 34004KT 13/11 A3003 RMK A01 T01320106  RH  084%=      5-min Rain = 0
KQU1 240204Z 34005KT 13/11 A3003 RMK A01 T01320106  RH  084%=      5-min Rain = 0
KQU1 240205Z 34004KT 13/11 A3003 RMK A01 T01310106  RH  085%=      5-min Rain = 0
KQU1 240206Z 34005KT 13/11 A3003 RMK A01 T01310106  RH  085%=      5-min Rain = 0
KQU1 240207Z 34005KT 13/11 A3003 RMK A01 T01300107  RH  085%=      5-min Rain = 0
KQU1 240208Z 35005KT 13/11 A3003 RMK A01 T01300107  RH  086%=      5-min Rain = 0
KQU1 240209Z 34004KT 13/11 A3003 RMK A01 T01300107  RH  086%=      5-min Rain = 0
KQU1 240210Z 35003KT 13/11 A3003 RMK A01 T01300107  RH  086%=      5-min Rain = 0
KQU1 240211Z 35003KT 13/11 A3003 RMK A01 T01300107  RH  086%=      5-min Rain = 0
KQU1 240212Z 35004KT 13/11 A3003 RMK A01 T01290108  RH  087%=      5-min Rain = 0
KQU1 240213Z 00003KT 13/11 A3003 RMK A01 T01290108  RH  087%=      5-min Rain = 0
KQU1 240214Z 35003KT 13/11 A3003 RMK A01 T01290108  RH  087%=      5-min Rain = 0
KQU1 240215Z 35004KT 13/11 A3003 RMK A01 T01290108  RH  087%=      5-min Rain = 0
KQU1 240216Z 35005KT 13/11 A3003 RMK A01 T01290108  RH  087%=      5-min Rain = 0
KQU1 240217Z 00003KT 13/11 A3003 RMK A01 T01290108  RH  087%=      5-min Rain = 0
KQU1 240218Z 35003KT 13/11 A3003 RMK A01 T01290108  RH  087%=      5-min Rain = 0
KQU1 240219Z 35004KT 13/11 A3003 RMK A01 T01290109  RH  087%=      5-min Rain = 0
KQU1 240220Z 35005KT 13/11 A3003 RMK A01 T01290109  RH  088%=      5-min Rain = 0
KQU1 240221Z 01004KT 13/11 A3003 RMK A01 T01290109  RH  088%=      5-min Rain = 0
KQU1 240222Z 35004KT 13/11 A3003 RMK A01 T01300109  RH  088%=      5-min Rain = 0
KQU1 240223Z 35004KT 13/11 A3003 RMK A01 T01300109  RH  087%=      5-min Rain = 0
KQU1 240224Z 35004KT 13/11 A3003 RMK A01 T01290109  RH  087%=      5-min Rain = 0
KQU1 240225Z 36004KT 13/11 A3003 RMK A01 T01290109  RH  087%=      5-min Rain = 0
KQU1 240226Z 36004KT 13/11 A3003 RMK A01 T01290109  RH  088%=      5-min Rain = 0
KQU1 240227Z 36005KT 13/11 A3003 RMK A01 T01290109  RH  088%=      5-min Rain = 0
KQU1 240228Z 35004KT 13/11 A3003 RMK A01 T01290108  RH  087%=      5-min Rain = 0
KQU1 240229Z 35004KT 13/11 A3003 RMK A01 T01290108  RH  087%=      5-min Rain = 0
KQU1 240230Z 01005KT 13/11 A3003 RMK A01 T01290107  RH  087%=      5-min Rain = 0
KQU1 240231Z 36005KT 13/11 A3003 RMK A01 T01280106  RH  086%=      5-min Rain = 0
KQU1 240232Z 36006KT 13/11 A3003 RMK A01 T01280105  RH  086%=      5-min Rain = 0
KQU1 240233Z 35004KT 13/10 A3003 RMK A01 T01280104  RH  086%=      5-min Rain = 0
KQU1 240234Z 35004KT 13/10 A3003 RMK A01 T01270104  RH  085%=      5-min Rain = 0
KQU1 240235Z 35005KT 13/10 A3003 RMK A01 T01270103  RH  085%=      5-min Rain = 0
KQU1 240236Z 35005KT 13/10 A3003 RMK A01 T01270102  RH  085%=      5-min Rain = 0
KQU1 240237Z 35004KT 13/10 A3003 RMK A01 T01260100  RH  084%=      5-min Rain = 0
KQU1 240238Z 36006KT 13/10 A3003 RMK A01 T01260099  RH  083%=      5-min Rain = 0
KQU1 240239Z 36004KT 13/10 A3003 RMK A01 T01260097  RH  083%=      5-min Rain = 0
KQU1 240240Z 00006KT 13/10 A3003 RMK A01 T01250096  RH  082%=      5-min Rain = 0
KQU1 240241Z 35005KT 13/09 A3003 RMK A01 T01250094  RH  081%=      5-min Rain = 0
KQU1 240242Z 36005KT 13/09 A3003 RMK A01 T01250094  RH  081%=      5-min Rain = 0
KQU1 240243Z 35006KT 13/09 A3003 RMK A01 T01250093  RH  081%=      5-min Rain = 0
KQU1 240244Z 36007KT 13/09 A3003 RMK A01 T01250091  RH  080%=      5-min Rain = 0
KQU1 240245Z 36006KT 13/09 A3003 RMK A01 T01250091  RH  080%=      5-min Rain = 0
KQU1 240246Z 01005KT 13/09 A3003 RMK A01 T01250091  RH  080%=      5-min Rain = 0
KQU1 240247Z 00005KT 13/09 A3003 RMK A01 T01250091  RH  080%=      5-min Rain = 0
KQU1 240248Z 01003KT 12/09 A3003 RMK A01 T01240090  RH  079%=      5-min Rain = 0
KQU1 240249Z 02004KT 12/09 A3003 RMK A01 T01240090  RH  079%=      5-min Rain = 0
KQU1 240250Z 01004G9KT 12/09 A3004 RMK A01 T01240089  RH  079%=      5-min Rain = 0
KQU1 240251Z 03004KT 12/09 A3004 RMK A01 T01240089  RH  079%=      5-min Rain = 0
KQU1 240252Z 03003KT 12/09 A3004 RMK A01 T01240089  RH  079%=      5-min Rain = 0
KQU1 240253Z 03004KT 12/09 A3004 RMK A01 T01240089  RH  079%=      5-min Rain = 0
KQU1 240254Z 03005KT 12/09 A3004 RMK A01 T01240087  RH  078%=      5-min Rain = 0
KQU1 240255Z 03004KT 12/09 A3005 RMK A01 T01240087  RH  078%=      5-min Rain = 0
KQU1 240256Z 02005KT 12/09 A3005 RMK A01 T01240087  RH  078%=      5-min Rain = 0
KQU1 240257Z 03002KT 12/09 A3005 RMK A01 T01240087  RH  078%=      5-min Rain = 0
KQU1 240258Z 02002KT 12/09 A3005 RMK A01 T01240088  RH  078%=      5-min Rain = 0
KQU1 240259Z 01001KT 12/09 A3005 RMK A01 T01240088  RH  078%=      5-min Rain = 0
KQU1 240300Z 01001KT 12/09 A3005 RMK A01 T01240088  RH  079%=      5-min Rain = 0
KQU1 240301Z 02002KT 12/09 A3005 RMK A01 T01240088  RH  079%=      5-min Rain = 0
KQU1 240302Z 34001KT 12/09 A3005 RMK A01 T01230087  RH  079%=      5-min Rain = 0
KQU1 240303Z 04001KT 12/09 A3005 RMK A01 T01230087  RH  079%=      5-min Rain = 0
KQU1 240304Z 03003KT 12/09 A3005 RMK A01 T01230086  RH  078%=      5-min Rain = 0
KQU1 240305Z 03004KT 12/09 A3005 RMK A01 T01230086  RH  078%=      5-min Rain = 0
KQU1 240306Z 04002KT 12/09 A3005 RMK A01 T01230086  RH  078%=      5-min Rain = 0
KQU1 240307Z 04002KT 12/09 A3005 RMK A01 T01230086  RH  078%=      5-min Rain = 0
KQU1 240308Z 06003KT 12/09 A3005 RMK A01 T01240086  RH  078%=      5-min Rain = 0
KQU1 240309Z 05002KT 12/09 A3005 RMK A01 T01240087  RH  078%=      5-min Rain = 0
KQU1 240310Z 03003KT 12/09 A3005 RMK A01 T01240087  RH  078%=      5-min Rain = 0
KQU1 240311Z 03002KT 12/09 A3005 RMK A01 T01240088  RH  078%=      5-min Rain = 0
KQU1 240312Z 04002KT 12/09 A3005 RMK A01 T01240088  RH  078%=      5-min Rain = 0
KQU1 240313Z 04003KT 12/09 A3005 RMK A01 T01240087  RH  078%=      5-min Rain = 0
KQU1 240314Z 02003KT 12/09 A3005 RMK A01 T01240088  RH  078%=      5-min Rain = 0
KQU1 240315Z 02003KT 12/09 A3005 RMK A01 T01240088  RH  079%=      5-min Rain = 0
KQU1 240316Z 36002KT 12/09 A3005 RMK A01 T01240089  RH  079%=      5-min Rain = 0
KQU1 240317Z 01002KT 12/09 A3005 RMK A01 T01240089  RH  079%=      5-min Rain = 0
KQU1 240318Z 34002KT 12/09 A3005 RMK A01 T01230089  RH  080%=      5-min Rain = 0
KQU1 240319Z 36003KT 12/09 A3005 RMK A01 T01230089  RH  080%=      5-min Rain = 0
KQU1 240320Z 35004KT 12/09 A3005 RMK A01 T01220089  RH  080%=      5-min Rain = 0
KQU1 240321Z 35004KT 12/09 A3005 RMK A01 T01220088  RH  080%=      5-min Rain = 0
KQU1 240322Z 35004KT 12/09 A3005 RMK A01 T01210087  RH  080%=      5-min Rain = 0
KQU1 240323Z 34005KT 12/09 A3005 RMK A01 T01200086  RH  079%=      5-min Rain = 0
KQU1 240324Z 35004KT 12/09 A3005 RMK A01 T01200085  RH  079%=      5-min Rain = 0
KQU1 240325Z 35004KT 12/09 A3005 RMK A01 T01200085  RH  079%=      5-min Rain = 0
KQU1 240326Z 35004KT 12/09 A3005 RMK A01 T01190085  RH  079%=      5-min Rain = 0
KQU1 240327Z 35004KT 12/09 A3005 RMK A01 T01190085  RH  079%=      5-min Rain = 0
KQU1 240328Z 35003KT 12/08 A3004 RMK A01 T01190084  RH  079%=      5-min Rain = 0
KQU1 240329Z 34003KT 12/08 A3004 RMK A01 T01190084  RH  079%=      5-min Rain = 0
KQU1 240330Z 35004KT 12/08 A3004 RMK A01 T01190084  RH  079%=      5-min Rain = 0
KQU1 240331Z 00003KT 12/09 A3004 RMK A01 T01190085  RH  080%=      5-min Rain = 0
KQU1 240332Z 00004KT 12/08 A3004 RMK A01 T01190084  RH  079%=      5-min Rain = 0
KQU1 240333Z 00003KT 12/08 A3004 RMK A01 T01180084  RH  079%=      5-min Rain = 0
KQU1 240334Z 01003KT 12/08 A3004 RMK A01 T01180083  RH  079%=      5-min Rain = 0
KQU1 240335Z 00004KT 12/08 A3004 RMK A01 T01180083  RH  079%=      5-min Rain = 0
KQU1 240336Z 36002KT 12/08 A3004 RMK A01 T01180083  RH  079%=      5-min Rain = 0
KQU1 240337Z 01002KT 12/08 A3004 RMK A01 T01180083  RH  079%=      5-min Rain = 0
KQU1 240338Z 00003KT 12/08 A3004 RMK A01 T01180084  RH  079%=      5-min Rain = 0
KQU1 240339Z 36003KT 12/08 A3004 RMK A01 T01180084  RH  079%=      5-min Rain = 0
KQU1 240340Z 01003KT 12/08 A3004 RMK A01 T01180083  RH  079%=      5-min Rain = 0
KQU1 240341Z 00003KT 12/08 A3004 RMK A01 T01180083  RH  079%=      5-min Rain = 0
KQU1 240342Z 00002KT 12/08 A3004 RMK A01 T01180083  RH  079%=      5-min Rain = 0
KQU1 240343Z 36004KT 12/08 A3004 RMK A01 T01180083  RH  079%=      5-min Rain = 0
KQU1 240344Z 01004KT 12/08 A3004 RMK A01 T01180082  RH  079%=      5-min Rain = 0
KQU1 240345Z 01002KT 12/08 A3004 RMK A01 T01180083  RH  079%=      5-min Rain = 0
KQU1 240346Z 00003KT 12/08 A3004 RMK A01 T01170082  RH  079%=      5-min Rain = 0
KQU1 240347Z 01004KT 12/08 A3004 RMK A01 T01170082  RH  079%=      5-min Rain = 0
KQU1 240348Z 01004KT 12/08 A3005 RMK A01 T01180082  RH  079%=      5-min Rain = 0
KQU1 240349Z 02004KT 12/08 A3005 RMK A01 T01180081  RH  078%=      5-min Rain = 0
KQU1 240350Z 01004KT 12/08 A3005 RMK A01 T01180081  RH  078%=      5-min Rain = 0
KQU1 240351Z 00004KT 12/08 A3004 RMK A01 T01180081  RH  078%=      5-min Rain = 0
KQU1 240352Z 01004KT 12/08 A3004 RMK A01 T01180081  RH  078%=      5-min Rain = 0
KQU1 240353Z 00005KT 12/08 A3004 RMK A01 T01180081  RH  078%=      5-min Rain = 0
KQU1 240354Z 01005KT 12/08 A3004 RMK A01 T01180082  RH  078%=      5-min Rain = 0
KQU1 240355Z 01003KT 12/08 A3004 RMK A01 T01180081  RH  078%=      5-min Rain = 0
KQU1 240356Z 01003KT 12/08 A3005 RMK A01 T01170081  RH  078%=      5-min Rain = 0
KQU1 240357Z 01003KT 12/08 A3005 RMK A01 T01170081  RH  078%=      5-min Rain = 0
KQU1 240358Z 01003KT 12/08 A3005 RMK A01 T01170081  RH  079%=      5-min Rain = 0
KQU1 240359Z 01003KT 12/08 A3005 RMK A01 T01170081  RH  079%=      5-min Rain = 0
KQU1 240400Z 36004KT 12/08 A3005 RMK A01 T01160080  RH  078%=      5-min Rain = 0
KQU1 240401Z 35004KT 12/08 A3005 RMK A01 T01160081  RH  079%=      5-min Rain = 0
KQU1 240402Z 35004KT 12/08 A3004 RMK A01 T01160081  RH  079%=      5-min Rain = 0
KQU1 240403Z 35005KT 12/08 A3004 RMK A01 T01160081  RH  079%=      5-min Rain = 0
KQU1 240404Z 35005KT 12/08 A3004 RMK A01 T01160080  RH  079%=      5-min Rain = 0
KQU1 240405Z 35005KT 12/08 A3004 RMK A01 T01160080  RH  079%=      5-min Rain = 0
KQU1 240406Z 35005KT 12/08 A3004 RMK A01 T01160080  RH  078%=      5-min Rain = 0
KQU1 240407Z 35005KT 12/08 A3004 RMK A01 T01160080  RH  079%=      5-min Rain = 0
KQU1 240408Z 35005KT 12/08 A3004 RMK A01 T01150079  RH  079%=      5-min Rain = 0
KQU1 240409Z 35004KT 12/08 A3004 RMK A01 T01150080  RH  079%=      5-min Rain = 0
KQU1 240410Z 35003KT 12/08 A3004 RMK A01 T01150080  RH  079%=      5-min Rain = 0
KQU1 240411Z 36004KT 12/08 A3004 RMK A01 T01150080  RH  079%=      5-min Rain = 0
KQU1 240412Z 01003KT 12/08 A3004 RMK A01 T01150079  RH  079%=      5-min Rain = 0
KQU1 240413Z 02003KT 12/08 A3004 RMK A01 T01150080  RH  079%=      5-min Rain = 0
KQU1 240414Z 02004KT 12/08 A3004 RMK A01 T01150080  RH  079%=      5-min Rain = 0
KQU1 240415Z 03003KT 12/08 A3005 RMK A01 T01150080  RH  079%=      5-min Rain = 0
KQU1 240416Z 05003KT 12/08 A3005 RMK A01 T01160080  RH  079%=      5-min Rain = 0
KQU1 240417Z 06003KT 12/08 A3005 RMK A01 T01160080  RH  078%=      5-min Rain = 0
KQU1 240418Z 05003KT 12/08 A3005 RMK A01 T01160080  RH  078%=      5-min Rain = 0
KQU1 240419Z 07002KT 12/08 A3005 RMK A01 T01160081  RH  079%=      5-min Rain = 0
KQU1 240420Z 07002KT 12/08 A3006 RMK A01 T01160081  RH  079%=      5-min Rain = 0
KQU1 240421Z 07002KT 12/08 A3006 RMK A01 T01150081  RH  079%=      5-min Rain = 0
KQU1 240422Z 05001KT 12/08 A3006 RMK A01 T01150081  RH  080%=      5-min Rain = 0
KQU1 240423Z 03002KT 11/08 A3006 RMK A01 T01140080  RH  080%=      5-min Rain = 0
KQU1 240424Z 02002KT 11/08 A3006 RMK A01 T01130080  RH  080%=      5-min Rain = 0
KQU1 240425Z 02002KT 11/08 A3006 RMK A01 T01130081  RH  081%=      5-min Rain = 0
KQU1 240426Z 01002KT 11/08 A3005 RMK A01 T01120081  RH  081%=      5-min Rain = 0
KQU1 240427Z 01002KT 11/08 A3005 RMK A01 T01120080  RH  081%=      5-min Rain = 0
KQU1 240428Z 34002KT 11/08 A3005 RMK A01 T01120080  RH  081%=      5-min Rain = 0
KQU1 240429Z 33001KT 11/08 A3006 RMK A01 T01120080  RH  081%=      5-min Rain = 0
KQU1 240430Z 34002KT 11/08 A3006 RMK A01 T01120081  RH  081%=      5-min Rain = 0
KQU1 240431Z 34002KT 11/08 A3006 RMK A01 T01120081  RH  082%=      5-min Rain = 0
KQU1 240432Z 33003KT 11/08 A3006 RMK A01 T01110081  RH  081%=      5-min Rain = 0
KQU1 240433Z 33002KT 11/08 A3006 RMK A01 T01100080  RH  082%=      5-min Rain = 0
KQU1 240434Z 33002KT 11/08 A3006 RMK A01 T01090080  RH  082%=      5-min Rain = 0
KQU1 240435Z 33002KT 11/08 A3006 RMK A01 T01080079  RH  082%=      5-min Rain = 0
KQU1 240436Z 33002KT 11/08 A3006 RMK A01 T01080080  RH  083%=      5-min Rain = 0
KQU1 240437Z 33002KT 11/08 A3006 RMK A01 T01070081  RH  084%=      5-min Rain = 0
KQU1 240438Z 33002KT 11/08 A3006 RMK A01 T01070081  RH  084%=      5-min Rain = 0
KQU1 240439Z 33002KT 11/08 A3006 RMK A01 T01060081  RH  084%=      5-min Rain = 0
KQU1 240440Z 31002KT 11/08 A3006 RMK A01 T01060081  RH  085%=      5-min Rain = 0
KQU1 240441Z 31003KT 11/08 A3006 RMK A01 T01060082  RH  085%=      5-min Rain = 0
KQU1 240442Z 31003KT 11/08 A3006 RMK A01 T01060082  RH  085%=      5-min Rain = 0
KQU1 240443Z 31004KT 11/08 A3006 RMK A01 T01050082  RH  086%=      5-min Rain = 0
KQU1 240444Z 31005KT 11/08 A3006 RMK A01 T01050083  RH  086%=      5-min Rain = 0
KQU1 240445Z 32005KT 11/08 A3006 RMK A01 T01050084  RH  087%=      5-min Rain = 0
KQU1 240446Z 32006KT 10/08 A3005 RMK A01 T01040084  RH  087%=      5-min Rain = 0
KQU1 240447Z 32007KT 10/09 A3005 RMK A01 T01040085  RH  088%=      5-min Rain = 0
KQU1 240448Z 32007KT 10/09 A3005 RMK A01 T01040085  RH  088%=      5-min Rain = 0
KQU1 240449Z 32007KT 10/08 A3005 RMK A01 T01030084  RH  088%=      5-min Rain = 0
KQU1 240450Z 32007KT 10/09 A3005 RMK A01 T01040085  RH  088%=      5-min Rain = 0
KQU1 240451Z 32007KT 10/09 A3005 RMK A01 T01040085  RH  088%=      5-min Rain = 0
KQU1 240452Z 32008KT 10/09 A3004 RMK A01 T01040085  RH  087%=      5-min Rain = 0
KQU1 240453Z 32008KT 11/09 A3004 RMK A01 T01050085  RH  088%=      5-min Rain = 0
KQU1 240454Z 32007KT 11/09 A3004 RMK A01 T01050085  RH  088%=      5-min Rain = 0
KQU1 240455Z 32007KT 11/09 A3004 RMK A01 T01050085  RH  088%=      5-min Rain = 0
KQU1 240456Z 33007KT 11/09 A3004 RMK A01 T01050085  RH  088%=      5-min Rain = 0
KQU1 240457Z 33007KT 11/09 A3004 RMK A01 T01060085  RH  087%=      5-min Rain = 0
KQU1 240458Z 33005KT 11/09 A3004 RMK A01 T01070086  RH  087%=      5-min Rain = 0
KQU1 240459Z 34005KT 11/09 A3004 RMK A01 T01080085  RH  086%=      5-min Rain = 0

Page generated in 0.1261 seconds.